PWSweather.com
Personal Weather Stations
Station Observations
DL5ARK
SonnebergDE

SonnebergDE

Lat: 50.34904861, Lon: 11.18112087

Elevation: 1214

Station Type: Selfmade

http://www.sumbarg.de

High Low Average
Temperature 39.9°F4.4°C 28.2°F-2.1°C 35.3°F1.8°C
Dew Point 44.1°F6.7°C 33.3°F0.7°C 38.4°F3.6°C
Winds 7.7 mph 12.4 kmh Calm Calm 2.0 mph W3.2 kmh W
Wind Gusts 7.9 mph12.7 kmh -- 2.0 mph3.2 kmh
Humidity 91% 76% 85%
Pressure 29.57 in1001.4 mb 29.44 in997.0 mb -
Precipitation 0.06 in1.5 mm - -
Hour Temp Dew Point Humidity Winds Wind Gusts Pressure Precip Precip Rate Daily Precip Total
12:01 AM 40.3°F4.6°C 44.2°F6.8°C 91% 5.2 mph WSW8.4 kmh WSW 5.2 mph8.4 kmh 29.46 in997.6 mb 0.00 in0.0 mm 0.00 in0.0 mm 0.00 in0.0 mm
12:04 AM 40.2°F4.6°C 44.5°F6.9°C 91% 2.0 mph W3.2 kmh W 2.0 mph3.2 kmh 29.46 in997.6 mb 0.00 in0.0 mm 0.00 in0.0 mm 0.00 in0.0 mm
12:07 AM 40.2°F4.6°C 44.3°F6.8°C 91% 8.0 mph WSW12.9 kmh WSW 8.0 mph12.9 kmh 29.47 in998.0 mb 0.00 in0.0 mm 0.00 in0.0 mm 0.00 in0.0 mm
12:10 AM 40.2°F4.6°C 44.1°F6.7°C 91% 9.9 mph W15.9 kmh W 10.0 mph16.1 kmh 29.47 in998.0 mb 0.00 in0.0 mm 0.00 in0.0 mm 0.00 in0.0 mm
12:13 AM 40.2°F4.6°C 44.3°F6.8°C 91% 3.2 mph W5.1 kmh W 3.3 mph5.3 kmh 29.47 in998.0 mb 0.00 in0.0 mm 0.00 in0.0 mm 0.00 in0.0 mm
12:16 AM 40.2°F4.6°C 43.9°F6.6°C 89% 9.7 mph NNW15.6 kmh NNW 9.7 mph15.6 kmh 29.46 in997.6 mb 0.00 in0.0 mm 0.00 in0.0 mm 0.00 in0.0 mm
12:19 AM 40.2°F4.6°C 44.3°F6.8°C 91% 5.7 mph W9.2 kmh W 5.7 mph9.2 kmh 29.47 in998.0 mb 0.00 in0.0 mm 0.00 in0.0 mm 0.00 in0.0 mm
12:22 AM 40.2°F4.6°C 44.1°F6.7°C 91% 3.6 mph WSW5.8 kmh WSW 3.7 mph6.0 kmh 29.47 in998.0 mb 0.00 in0.0 mm 0.00 in0.0 mm 0.00 in0.0 mm
12:25 AM 40.2°F4.6°C 44.1°F6.7°C 90% 8.1 mph WSW13.0 kmh WSW 8.1 mph13.0 kmh 29.46 in997.6 mb 0.00 in0.0 mm 0.00 in0.0 mm 0.00 in0.0 mm
12:28 AM 40.2°F4.6°C 44.2°F6.8°C 91% 3.6 mph NNW5.8 kmh NNW 3.7 mph6.0 kmh 29.46 in997.6 mb 0.00 in0.0 mm 0.00 in0.0 mm 0.00 in0.0 mm
12:31 AM 40.1°F4.5°C 44.4°F6.9°C 91% 9.5 mph W15.3 kmh W 9.6 mph15.4 kmh 29.46 in997.6 mb 0.00 in0.0 mm 0.00 in0.0 mm 0.00 in0.0 mm
12:34 AM 40.1°F4.5°C 44.0°F6.7°C 91% 8.9 mph WSW14.3 kmh WSW 8.9 mph14.3 kmh 29.46 in997.6 mb 0.00 in0.0 mm 0.00 in0.0 mm 0.00 in0.0 mm
12:37 AM 40.1°F4.5°C 44.1°F6.7°C 91% 8.0 mph NNW12.9 kmh NNW 8.0 mph12.9 kmh 29.46 in997.6 mb 0.00 in0.0 mm 0.00 in0.0 mm 0.00 in0.0 mm
12:40 AM 40.1°F4.5°C 43.6°F6.4°C 89% 8.3 mph W13.4 kmh W 8.4 mph13.5 kmh 29.46 in997.6 mb 0.00 in0.0 mm 0.00 in0.0 mm 0.00 in0.0 mm
12:43 AM 40.1°F4.5°C 44.1°F6.7°C 91% 3.2 mph NNW5.1 kmh NNW 3.3 mph5.3 kmh 29.46 in997.6 mb 0.00 in0.0 mm 0.00 in0.0 mm 0.00 in0.0 mm
12:46 AM 40.1°F4.5°C 44.3°F6.8°C 91% 4.4 mph WSW7.1 kmh WSW 4.5 mph7.2 kmh 29.46 in997.6 mb 0.00 in0.0 mm 0.00 in0.0 mm 0.00 in0.0 mm
12:49 AM 40.0°F4.4°C 44.2°F6.8°C 91% 4.4 mph NNW7.1 kmh NNW 4.5 mph7.2 kmh 29.46 in997.6 mb 0.00 in0.0 mm 0.00 in0.0 mm 0.00 in0.0 mm
12:52 AM 40.0°F4.4°C 44.1°F6.7°C 90% 8.5 mph W13.7 kmh W 8.6 mph13.8 kmh 29.46 in997.6 mb 0.00 in0.0 mm 0.00 in0.0 mm 0.00 in0.0 mm
12:55 AM 40.0°F4.4°C 44.2°F6.8°C 91% 8.1 mph NNW13.0 kmh NNW 8.1 mph13.0 kmh 29.46 in997.6 mb 0.00 in0.0 mm 0.00 in0.0 mm 0.00 in0.0 mm
12:58 AM 39.9°F4.4°C 44.1°F6.7°C 91% 6.4 mph NNW10.3 kmh NNW 6.5 mph10.5 kmh 29.46 in997.6 mb 0.00 in0.0 mm 0.00 in0.0 mm 0.02 in0.5 mm
01:01 AM 39.9°F4.4°C 44.0°F6.7°C 90% 3.2 mph W5.1 kmh W 3.3 mph5.3 kmh 29.46 in997.6 mb 0.00 in0.0 mm 0.00 in0.0 mm 0.02 in0.5 mm
01:04 AM 39.8°F4.3°C 43.8°F6.6°C 91% 3.6 mph WNW5.8 kmh WNW 3.7 mph6.0 kmh 29.46 in997.6 mb 0.00 in0.0 mm 0.00 in0.0 mm 0.02 in0.5 mm
01:07 AM 39.8°F4.3°C 43.6°F6.4°C 89% 4.4 mph W7.1 kmh W 4.4 mph7.1 kmh 29.46 in997.6 mb 0.00 in0.0 mm 0.00 in0.0 mm 0.02 in0.5 mm
01:10 AM 39.8°F4.3°C 44.0°F6.7°C 91% 0.8 mph NNW1.3 kmh NNW 0.8 mph1.3 kmh 29.46 in997.6 mb 0.00 in0.0 mm 0.00 in0.0 mm 0.02 in0.5 mm
01:13 AM 39.8°F4.3°C 43.7°F6.5°C 89% 3.2 mph NW5.1 kmh NW 3.3 mph5.3 kmh 29.47 in998.0 mb 0.00 in0.0 mm 0.00 in0.0 mm 0.02 in0.5 mm
01:16 AM 39.7°F4.3°C 43.9°F6.6°C 90% 5.2 mph NNW8.4 kmh NNW 5.3 mph8.5 kmh 29.46 in997.6 mb 0.00 in0.0 mm 0.00 in0.0 mm 0.02 in0.5 mm
01:19 AM 39.7°F4.3°C 44.0°F6.7°C 90% 2.8 mph W4.5 kmh W 2.9 mph4.7 kmh 29.46 in997.6 mb 0.00 in0.0 mm 0.00 in0.0 mm 0.02 in0.5 mm
01:22 AM 39.5°F4.2°C 43.7°F6.5°C 90% Calm Calm -- 29.46 in997.6 mb 0.00 in0.0 mm 0.00 in0.0 mm 0.02 in0.5 mm
01:25 AM 39.5°F4.2°C 43.6°F6.4°C 90% 3.2 mph NW5.1 kmh NW 3.3 mph5.3 kmh 29.45 in997.3 mb 0.00 in0.0 mm 0.00 in0.0 mm 0.02 in0.5 mm
01:28 AM 39.4°F4.1°C 43.9°F6.6°C 90% 0.4 mph WNW0.6 kmh WNW 0.4 mph0.6 kmh 29.45 in997.3 mb 0.00 in0.0 mm 0.00 in0.0 mm 0.02 in0.5 mm
01:31 AM 39.4°F4.1°C 43.7°F6.5°C 90% Calm Calm -- 29.45 in997.3 mb 0.00 in0.0 mm 0.00 in0.0 mm 0.02 in0.5 mm
01:34 AM 39.3°F4.1°C 43.7°F6.5°C 90% 1.6 mph WNW2.6 kmh WNW 1.6 mph2.6 kmh 29.45 in997.3 mb 0.00 in0.0 mm 0.00 in0.0 mm 0.02 in0.5 mm
01:37 AM 39.3°F4.1°C 43.7°F6.5°C 90% 1.6 mph NNW2.6 kmh NNW 1.6 mph2.6 kmh 29.45 in997.3 mb 0.00 in0.0 mm 0.00 in0.0 mm 0.02 in0.5 mm
01:40 AM 39.3°F4.1°C 43.6°F6.4°C 89% 1.6 mph W2.6 kmh W 1.6 mph2.6 kmh 29.45 in997.3 mb 0.00 in0.0 mm 0.00 in0.0 mm 0.02 in0.5 mm
01:43 AM 39.3°F4.1°C 43.7°F6.5°C 90% Calm Calm -- 29.45 in997.3 mb 0.00 in0.0 mm 0.00 in0.0 mm 0.02 in0.5 mm
01:46 AM 39.2°F4.0°C 43.5°F6.4°C 90% 0.4 mph W0.6 kmh W 0.4 mph0.6 kmh 29.45 in997.3 mb 0.00 in0.0 mm 0.00 in0.0 mm 0.02 in0.5 mm
01:49 AM 39.2°F4.0°C 43.5°F6.4°C 89% 2.4 mph W3.9 kmh W 2.4 mph3.9 kmh 29.45 in997.3 mb 0.00 in0.0 mm 0.00 in0.0 mm 0.02 in0.5 mm
01:52 AM 39.3°F4.1°C 43.5°F6.4°C 89% 2.8 mph W4.5 kmh W 2.8 mph4.5 kmh 29.45 in997.3 mb 0.00 in0.0 mm 0.00 in0.0 mm 0.02 in0.5 mm
01:55 AM 39.2°F4.0°C 43.6°F6.4°C 90% Calm Calm -- 29.46 in997.6 mb 0.00 in0.0 mm 0.00 in0.0 mm 0.02 in0.5 mm
01:58 AM 39.2°F4.0°C 43.6°F6.4°C 90% Calm Calm -- 29.46 in997.6 mb 0.00 in0.0 mm 0.00 in0.0 mm 0.02 in0.5 mm
02:01 AM 39.1°F3.9°C 43.3°F6.3°C 89% Calm Calm -- 29.46 in997.6 mb 0.00 in0.0 mm 0.00 in0.0 mm 0.02 in0.5 mm
02:07 AM 39.1°F3.9°C 43.0°F6.1°C 89% 2.8 mph W4.5 kmh W 2.9 mph4.7 kmh 29.45 in997.3 mb 0.00 in0.0 mm 0.00 in0.0 mm 0.02 in0.5 mm
02:10 AM 39.1°F3.9°C 43.3°F6.3°C 89% 4.0 mph NNW6.4 kmh NNW 4.0 mph6.4 kmh 29.46 in997.6 mb 0.00 in0.0 mm 0.00 in0.0 mm 0.02 in0.5 mm
02:13 AM 39.0°F3.9°C 43.0°F6.1°C 89% 2.0 mph NW3.2 kmh NW 2.0 mph3.2 kmh 29.46 in997.6 mb 0.00 in0.0 mm 0.00 in0.0 mm 0.02 in0.5 mm
02:16 AM 39.0°F3.9°C 43.1°F6.2°C 89% 3.2 mph NW5.1 kmh NW 3.3 mph5.3 kmh 29.46 in997.6 mb 0.00 in0.0 mm 0.00 in0.0 mm 0.02 in0.5 mm
02:19 AM 38.9°F3.8°C 43.1°F6.2°C 89% 3.6 mph NNW5.8 kmh NNW 3.7 mph6.0 kmh 29.46 in997.6 mb 0.00 in0.0 mm 0.00 in0.0 mm 0.02 in0.5 mm
02:22 AM 38.8°F3.8°C 42.8°F6.0°C 89% 6.4 mph NW10.3 kmh NW 6.5 mph10.5 kmh 29.46 in997.6 mb 0.00 in0.0 mm 0.00 in0.0 mm 0.02 in0.5 mm
02:25 AM 38.8°F3.8°C 42.9°F6.1°C 89% 2.8 mph W4.5 kmh W 2.8 mph4.5 kmh 29.46 in997.6 mb 0.00 in0.0 mm 0.00 in0.0 mm 0.02 in0.5 mm
02:28 AM 38.6°F3.7°C 43.0°F6.1°C 89% Calm Calm -- 29.46 in997.6 mb 0.00 in0.0 mm 0.00 in0.0 mm 0.02 in0.5 mm
02:31 AM 38.6°F3.7°C 43.0°F6.1°C 89% 1.6 mph NW2.6 kmh NW 1.6 mph2.6 kmh 29.46 in997.6 mb 0.00 in0.0 mm 0.00 in0.0 mm 0.02 in0.5 mm
02:34 AM 38.5°F3.6°C 42.8°F6.0°C 89% 4.8 mph NW7.7 kmh NW 4.9 mph7.9 kmh 29.46 in997.6 mb 0.00 in0.0 mm 0.00 in0.0 mm 0.02 in0.5 mm
02:40 AM 38.5°F3.6°C 42.7°F5.9°C 89% 1.9 mph NNW3.1 kmh NNW 1.9 mph3.1 kmh 29.45 in997.3 mb 0.00 in0.0 mm 0.00 in0.0 mm 0.02 in0.5 mm
02:43 AM 38.4°F3.6°C 42.6°F5.9°C 89% 2.8 mph W4.5 kmh W 2.8 mph4.5 kmh 29.46 in997.6 mb 0.00 in0.0 mm 0.00 in0.0 mm 0.02 in0.5 mm
02:46 AM 38.4°F3.6°C 42.3°F5.7°C 88% 4.0 mph WNW6.4 kmh WNW 4.1 mph6.6 kmh 29.45 in997.3 mb 0.00 in0.0 mm 0.00 in0.0 mm 0.02 in0.5 mm
02:49 AM 38.4°F3.6°C 42.7°F5.9°C 89% 1.2 mph NNW1.9 kmh NNW 1.2 mph1.9 kmh 29.45 in997.3 mb 0.00 in0.0 mm 0.00 in0.0 mm 0.02 in0.5 mm
02:52 AM 38.2°F3.4°C 42.6°F5.9°C 89% 1.6 mph WNW2.6 kmh WNW 1.6 mph2.6 kmh 29.45 in997.3 mb 0.00 in0.0 mm 0.00 in0.0 mm 0.02 in0.5 mm
02:55 AM 38.2°F3.4°C 42.2°F5.7°C 87% 4.0 mph NW6.4 kmh NW 4.0 mph6.4 kmh 29.45 in997.3 mb 0.00 in0.0 mm 0.00 in0.0 mm 0.02 in0.5 mm
02:58 AM 38.2°F3.4°C 42.3°F5.7°C 89% 2.0 mph W3.2 kmh W 2.0 mph3.2 kmh 29.45 in997.3 mb 0.00 in0.0 mm 0.00 in0.0 mm 0.02 in0.5 mm
03:01 AM 38.2°F3.4°C 42.0°F5.6°C 87% 3.2 mph W5.1 kmh W 3.3 mph5.3 kmh 29.45 in997.3 mb 0.00 in0.0 mm 0.00 in0.0 mm 0.02 in0.5 mm
03:04 AM 38.1°F3.4°C 42.2°F5.7°C 89% 2.8 mph SW4.5 kmh SW 2.9 mph4.7 kmh 29.45 in997.3 mb 0.00 in0.0 mm 0.00 in0.0 mm 0.04 in1.0 mm
03:07 AM 38.1°F3.4°C 42.2°F5.7°C 89% 3.2 mph NNW5.1 kmh NNW 3.3 mph5.3 kmh 29.45 in997.3 mb 0.00 in0.0 mm 0.00 in0.0 mm 0.04 in1.0 mm
03:10 AM 38.1°F3.4°C 42.2°F5.7°C 89% Calm Calm -- 29.44 in997.0 mb 0.00 in0.0 mm 0.00 in0.0 mm 0.04 in1.0 mm
03:13 AM 38.0°F3.3°C 42.4°F5.8°C 89% 2.0 mph W3.2 kmh W 2.0 mph3.2 kmh 29.45 in997.3 mb 0.00 in0.0 mm 0.00 in0.0 mm 0.04 in1.0 mm
03:16 AM 38.0°F3.3°C 42.3°F5.7°C 89% 3.2 mph NNW5.1 kmh NNW 3.2 mph5.1 kmh 29.45 in997.3 mb 0.00 in0.0 mm 0.00 in0.0 mm 0.04 in1.0 mm
03:19 AM 38.0°F3.3°C 42.2°F5.7°C 89% Calm Calm -- 29.44 in997.0 mb 0.00 in0.0 mm 0.00 in0.0 mm 0.04 in1.0 mm
03:22 AM 38.0°F3.3°C 42.3°F5.7°C 89% 0.4 mph NNW0.6 kmh NNW 0.4 mph0.6 kmh 29.45 in997.3 mb 0.00 in0.0 mm 0.00 in0.0 mm 0.04 in1.0 mm
03:25 AM 38.0°F3.3°C 42.4°F5.8°C 89% 1.6 mph WSW2.6 kmh WSW 1.6 mph2.6 kmh 29.44 in997.0 mb 0.00 in0.0 mm 0.00 in0.0 mm 0.04 in1.0 mm
03:28 AM 37.9°F3.3°C 42.3°F5.7°C 89% 2.4 mph SW3.9 kmh SW 2.4 mph3.9 kmh 29.45 in997.3 mb 0.00 in0.0 mm 0.00 in0.0 mm 0.04 in1.0 mm
03:31 AM 37.9°F3.3°C 42.4°F5.8°C 89% 2.0 mph W3.2 kmh W 2.0 mph3.2 kmh 29.44 in997.0 mb 0.00 in0.0 mm 0.00 in0.0 mm 0.04 in1.0 mm
03:34 AM 37.7°F3.2°C 42.0°F5.6°C 89% 3.6 mph W5.8 kmh W 3.7 mph6.0 kmh 29.44 in997.0 mb 0.00 in0.0 mm 0.00 in0.0 mm 0.04 in1.0 mm
03:37 AM 37.7°F3.2°C 42.1°F5.6°C 89% 6.5 mph W10.5 kmh W 6.5 mph10.5 kmh 29.45 in997.3 mb 0.00 in0.0 mm 0.00 in0.0 mm 0.04 in1.0 mm
03:40 AM 37.7°F3.2°C 41.9°F5.5°C 89% Calm Calm -- 29.44 in997.0 mb 0.00 in0.0 mm 0.00 in0.0 mm 0.04 in1.0 mm
03:43 AM 37.6°F3.1°C 41.9°F5.5°C 89% 0.8 mph WSW1.3 kmh WSW 0.8 mph1.3 kmh 29.44 in997.0 mb 0.00 in0.0 mm 0.00 in0.0 mm 0.04 in1.0 mm
03:46 AM 37.6°F3.1°C 41.6°F5.3°C 87% 3.6 mph WNW5.8 kmh WNW 3.7 mph6.0 kmh 29.44 in997.0 mb 0.00 in0.0 mm 0.00 in0.0 mm 0.04 in1.0 mm
03:49 AM 37.6°F3.1°C 41.9°F5.5°C 89% 3.2 mph NNW5.1 kmh NNW 3.2 mph5.1 kmh 29.44 in997.0 mb 0.00 in0.0 mm 0.00 in0.0 mm 0.04 in1.0 mm
03:52 AM 37.6°F3.1°C 41.9°F5.5°C 89% 0.4 mph WNW0.6 kmh WNW 0.4 mph0.6 kmh 29.44 in997.0 mb 0.00 in0.0 mm 0.00 in0.0 mm 0.04 in1.0 mm
03:55 AM 37.5°F3.1°C 42.0°F5.6°C 89% 3.2 mph WNW5.1 kmh WNW 3.3 mph5.3 kmh 29.44 in997.0 mb 0.00 in0.0 mm 0.00 in0.0 mm 0.04 in1.0 mm
03:58 AM 37.5°F3.1°C 41.9°F5.5°C 89% 3.6 mph NNW5.8 kmh NNW 3.7 mph6.0 kmh 29.45 in997.3 mb 0.00 in0.0 mm 0.00 in0.0 mm 0.04 in1.0 mm
04:01 AM 37.5°F3.1°C 41.8°F5.4°C 89% 1.6 mph W2.6 kmh W 1.6 mph2.6 kmh 29.45 in997.3 mb 0.00 in0.0 mm 0.00 in0.0 mm 0.04 in1.0 mm
04:04 AM 37.5°F3.1°C 41.7°F5.4°C 89% 0.4 mph W0.6 kmh W 0.4 mph0.6 kmh 29.45 in997.3 mb 0.00 in0.0 mm 0.00 in0.0 mm 0.04 in1.0 mm
04:07 AM 37.4°F3.0°C 41.8°F5.4°C 89% 6.8 mph NNW10.9 kmh NNW 6.8 mph10.9 kmh 29.45 in997.3 mb 0.00 in0.0 mm 0.00 in0.0 mm 0.04 in1.0 mm
04:10 AM 37.4°F3.0°C 41.7°F5.4°C 89% 6.0 mph W9.7 kmh W 6.0 mph9.7 kmh 29.46 in997.6 mb 0.00 in0.0 mm 0.00 in0.0 mm 0.06 in1.5 mm
04:13 AM 37.3°F2.9°C 41.4°F5.2°C 88% 2.0 mph W3.2 kmh W 2.0 mph3.2 kmh 29.46 in997.6 mb 0.00 in0.0 mm 0.00 in0.0 mm 0.06 in1.5 mm
04:16 AM 37.3°F2.9°C 41.5°F5.3°C 89% 1.2 mph NNW1.9 kmh NNW 1.2 mph1.9 kmh 29.45 in997.3 mb 0.00 in0.0 mm 0.00 in0.0 mm 0.06 in1.5 mm
04:19 AM 37.3°F2.9°C 41.5°F5.3°C 89% 3.6 mph W5.8 kmh W 3.6 mph5.8 kmh 29.45 in997.3 mb 0.00 in0.0 mm 0.00 in0.0 mm 0.06 in1.5 mm
04:22 AM 37.2°F2.9°C 41.3°F5.2°C 88% 4.0 mph W6.4 kmh W 4.1 mph6.6 kmh 29.46 in997.6 mb 0.00 in0.0 mm 0.00 in0.0 mm 0.06 in1.5 mm
04:25 AM 37.2°F2.9°C 41.6°F5.3°C 89% 5.2 mph NNW8.4 kmh NNW 5.3 mph8.5 kmh 29.46 in997.6 mb 0.00 in0.0 mm 0.00 in0.0 mm 0.06 in1.5 mm
04:28 AM 37.2°F2.9°C 41.4°F5.2°C 89% 5.7 mph W9.2 kmh W 5.7 mph9.2 kmh 29.46 in997.6 mb 0.00 in0.0 mm 0.00 in0.0 mm 0.06 in1.5 mm
04:31 AM 37.2°F2.9°C 41.4°F5.2°C 89% 3.6 mph W5.8 kmh W 3.6 mph5.8 kmh 29.46 in997.6 mb 0.00 in0.0 mm 0.00 in0.0 mm 0.06 in1.5 mm
04:37 AM 37.0°F2.8°C 41.1°F5.1°C 89% 3.6 mph NW5.8 kmh NW 3.7 mph6.0 kmh 29.46 in997.6 mb 0.00 in0.0 mm 0.00 in0.0 mm 0.06 in1.5 mm
04:40 AM 37.0°F2.8°C 41.1°F5.1°C 89% 4.8 mph NW7.7 kmh NW 4.9 mph7.9 kmh 29.46 in997.6 mb 0.00 in0.0 mm 0.00 in0.0 mm 0.06 in1.5 mm
04:43 AM 36.8°F2.7°C 41.1°F5.1°C 88% 3.6 mph WNW5.8 kmh WNW 3.6 mph5.8 kmh 29.47 in998.0 mb 0.00 in0.0 mm 0.00 in0.0 mm 0.06 in1.5 mm
04:46 AM 36.8°F2.7°C 40.9°F4.9°C 89% 2.0 mph W3.2 kmh W 2.0 mph3.2 kmh 29.47 in998.0 mb 0.00 in0.0 mm 0.00 in0.0 mm 0.06 in1.5 mm
04:49 AM 36.8°F2.7°C 40.9°F4.9°C 88% 2.0 mph NNW3.2 kmh NNW 2.0 mph3.2 kmh 29.46 in997.6 mb 0.00 in0.0 mm 0.00 in0.0 mm 0.06 in1.5 mm
04:52 AM 36.7°F2.6°C 40.6°F4.8°C 87% 2.4 mph NW3.9 kmh NW 2.4 mph3.9 kmh 29.46 in997.6 mb 0.00 in0.0 mm 0.00 in0.0 mm 0.06 in1.5 mm
04:55 AM 36.7°F2.6°C 40.9°F4.9°C 88% 1.2 mph NW1.9 kmh NW 1.2 mph1.9 kmh 29.47 in998.0 mb 0.00 in0.0 mm 0.00 in0.0 mm 0.06 in1.5 mm
04:58 AM 36.6°F2.6°C 40.8°F4.9°C 88% 2.0 mph NNW3.2 kmh NNW 2.0 mph3.2 kmh 29.47 in998.0 mb 0.00 in0.0 mm 0.00 in0.0 mm 0.06 in1.5 mm
05:01 AM 36.6°F2.6°C 40.7°F4.8°C 88% 0.4 mph WNW0.6 kmh WNW 0.4 mph0.6 kmh 29.47 in998.0 mb 0.00 in0.0 mm 0.00 in0.0 mm 0.06 in1.5 mm
05:04 AM 36.5°F2.5°C 40.7°F4.8°C 88% Calm Calm -- 29.47 in998.0 mb 0.00 in0.0 mm 0.00 in0.0 mm 0.06 in1.5 mm
05:07 AM 36.5°F2.5°C 40.6°F4.8°C 88% 2.8 mph W4.5 kmh W 2.8 mph4.5 kmh 29.47 in998.0 mb 0.00 in0.0 mm 0.00 in0.0 mm 0.06 in1.5 mm
05:10 AM 36.4°F2.4°C 41.0°F5.0°C 88% 1.2 mph W1.9 kmh W 1.2 mph1.9 kmh 29.47 in998.0 mb 0.00 in0.0 mm 0.00 in0.0 mm 0.06 in1.5 mm
05:13 AM 36.4°F2.4°C 40.7°F4.8°C 88% 3.2 mph WSW5.1 kmh WSW 3.2 mph5.1 kmh 29.47 in998.0 mb 0.00 in0.0 mm 0.00 in0.0 mm 0.06 in1.5 mm
05:16 AM 36.3°F2.4°C 40.6°F4.8°C 88% 2.4 mph WNW3.9 kmh WNW 2.4 mph3.9 kmh 29.46 in997.6 mb 0.00 in0.0 mm 0.00 in0.0 mm 0.06 in1.5 mm
05:19 AM 36.3°F2.4°C 40.7°F4.8°C 88% Calm Calm -- 29.47 in998.0 mb 0.00 in0.0 mm 0.00 in0.0 mm 0.06 in1.5 mm
05:22 AM 36.2°F2.3°C 40.7°F4.8°C 88% 2.0 mph W3.2 kmh W 2.0 mph3.2 kmh 29.46 in997.6 mb 0.00 in0.0 mm 0.00 in0.0 mm 0.06 in1.5 mm
05:25 AM 36.1°F2.3°C 40.5°F4.7°C 88% 0.8 mph W1.3 kmh W 0.8 mph1.3 kmh 29.46 in997.6 mb 0.00 in0.0 mm 0.00 in0.0 mm 0.06 in1.5 mm
05:28 AM 35.9°F2.2°C 40.7°F4.8°C 88% 1.6 mph W2.6 kmh W 1.6 mph2.6 kmh 29.46 in997.6 mb 0.00 in0.0 mm 0.00 in0.0 mm 0.06 in1.5 mm
05:31 AM 35.8°F2.1°C 40.7°F4.8°C 88% 1.6 mph W2.6 kmh W 1.6 mph2.6 kmh 29.46 in997.6 mb 0.00 in0.0 mm 0.00 in0.0 mm 0.06 in1.5 mm
05:34 AM 35.8°F2.1°C 40.5°F4.7°C 88% 0.8 mph W1.3 kmh W 0.8 mph1.3 kmh 29.47 in998.0 mb 0.00 in0.0 mm 0.00 in0.0 mm 0.06 in1.5 mm
05:37 AM 35.9°F2.2°C 40.6°F4.8°C 88% Calm Calm -- 29.47 in998.0 mb 0.00 in0.0 mm 0.00 in0.0 mm 0.06 in1.5 mm
05:40 AM 35.9°F2.2°C 40.5°F4.7°C 88% Calm Calm -- 29.47 in998.0 mb 0.00 in0.0 mm 0.00 in0.0 mm 0.06 in1.5 mm
05:43 AM 35.9°F2.2°C 40.4°F4.7°C 88% 1.6 mph NNW2.6 kmh NNW 1.6 mph2.6 kmh 29.46 in997.6 mb 0.00 in0.0 mm 0.00 in0.0 mm 0.06 in1.5 mm
05:46 AM 35.9°F2.2°C 40.6°F4.8°C 88% 2.4 mph WNW3.9 kmh WNW 2.4 mph3.9 kmh 29.47 in998.0 mb 0.00 in0.0 mm 0.00 in0.0 mm 0.06 in1.5 mm
05:49 AM 35.9°F2.2°C 40.4°F4.7°C 88% Calm Calm -- 29.47 in998.0 mb 0.00 in0.0 mm 0.00 in0.0 mm 0.06 in1.5 mm
05:52 AM 35.9°F2.2°C 40.2°F4.6°C 88% 0.4 mph W0.6 kmh W 0.4 mph0.6 kmh 29.46 in997.6 mb 0.00 in0.0 mm 0.00 in0.0 mm 0.06 in1.5 mm
05:55 AM 35.8°F2.1°C 40.0°F4.4°C 87% 1.2 mph NNW1.9 kmh NNW 1.2 mph1.9 kmh 29.47 in998.0 mb 0.00 in0.0 mm 0.00 in0.0 mm 0.06 in1.5 mm
05:58 AM 35.9°F2.2°C 40.3°F4.6°C 88% 1.2 mph NW1.9 kmh NW 1.2 mph1.9 kmh 29.47 in998.0 mb 0.00 in0.0 mm 0.00 in0.0 mm 0.06 in1.5 mm
06:01 AM 35.9°F2.2°C 40.4°F4.7°C 88% 2.0 mph WNW3.2 kmh WNW 2.0 mph3.2 kmh 29.47 in998.0 mb 0.00 in0.0 mm 0.00 in0.0 mm 0.06 in1.5 mm
06:04 AM 35.8°F2.1°C 40.4°F4.7°C 88% 1.2 mph WNW1.9 kmh WNW 1.2 mph1.9 kmh 29.47 in998.0 mb 0.00 in0.0 mm 0.00 in0.0 mm 0.06 in1.5 mm
06:07 AM 35.7°F2.1°C 40.0°F4.4°C 88% 2.0 mph W3.2 kmh W 2.0 mph3.2 kmh 29.47 in998.0 mb 0.00 in0.0 mm 0.00 in0.0 mm 0.06 in1.5 mm
06:10 AM 35.5°F1.9°C 39.8°F4.3°C 87% 3.2 mph NW5.1 kmh NW 3.3 mph5.3 kmh 29.47 in998.0 mb 0.00 in0.0 mm 0.00 in0.0 mm 0.06 in1.5 mm
06:13 AM 35.4°F1.9°C 39.7°F4.3°C 87% Calm Calm -- 29.47 in998.0 mb 0.00 in0.0 mm 0.00 in0.0 mm 0.06 in1.5 mm
06:16 AM 35.3°F1.8°C 39.6°F4.2°C 86% 0.4 mph WNW0.6 kmh WNW 0.4 mph0.6 kmh 29.47 in998.0 mb 0.00 in0.0 mm 0.00 in0.0 mm 0.06 in1.5 mm
06:19 AM 35.0°F1.7°C 39.2°F4.0°C 86% 2.4 mph NW3.9 kmh NW 2.4 mph3.9 kmh 29.47 in998.0 mb 0.00 in0.0 mm 0.00 in0.0 mm 0.06 in1.5 mm
06:22 AM 35.0°F1.7°C 39.3°F4.1°C 86% 0.4 mph WNW0.6 kmh WNW 0.4 mph0.6 kmh 29.47 in998.0 mb 0.00 in0.0 mm 0.00 in0.0 mm 0.06 in1.5 mm
06:25 AM 34.9°F1.6°C 39.3°F4.1°C 87% Calm Calm -- 29.47 in998.0 mb 0.00 in0.0 mm 0.00 in0.0 mm 0.06 in1.5 mm
06:28 AM 34.9°F1.6°C 39.4°F4.1°C 86% 0.8 mph NNW1.3 kmh NNW 0.8 mph1.3 kmh 29.47 in998.0 mb 0.00 in0.0 mm 0.00 in0.0 mm 0.06 in1.5 mm
06:31 AM 34.8°F1.6°C 39.5°F4.2°C 87% Calm Calm -- 29.47 in998.0 mb 0.00 in0.0 mm 0.00 in0.0 mm 0.06 in1.5 mm
06:34 AM 34.8°F1.6°C 39.2°F4.0°C 87% Calm Calm -- 29.47 in998.0 mb 0.00 in0.0 mm 0.00 in0.0 mm 0.06 in1.5 mm
06:37 AM 34.7°F1.5°C 39.5°F4.2°C 87% Calm Calm -- 29.47 in998.0 mb 0.00 in0.0 mm 0.00 in0.0 mm 0.06 in1.5 mm
06:40 AM 34.8°F1.6°C 39.4°F4.1°C 87% Calm Calm -- 29.47 in998.0 mb 0.00 in0.0 mm 0.00 in0.0 mm 0.06 in1.5 mm
06:43 AM 34.9°F1.6°C 39.5°F4.2°C 87% Calm Calm -- 29.47 in998.0 mb 0.00 in0.0 mm 0.00 in0.0 mm 0.06 in1.5 mm
06:46 AM 34.8°F1.6°C 39.4°F4.1°C 87% Calm Calm -- 29.47 in998.0 mb 0.00 in0.0 mm 0.00 in0.0 mm 0.06 in1.5 mm
06:49 AM 34.8°F1.6°C 39.6°F4.2°C 88% Calm Calm -- 29.47 in998.0 mb 0.00 in0.0 mm 0.00 in0.0 mm 0.06 in1.5 mm
06:52 AM 34.8°F1.6°C 39.3°F4.1°C 88% Calm Calm -- 29.47 in998.0 mb 0.00 in0.0 mm 0.00 in0.0 mm 0.06 in1.5 mm
06:55 AM 34.7°F1.5°C 39.8°F4.3°C 88% Calm Calm -- 29.47 in998.0 mb 0.00 in0.0 mm 0.00 in0.0 mm 0.06 in1.5 mm
06:58 AM 34.7°F1.5°C 39.4°F4.1°C 87% Calm Calm -- 29.47 in998.0 mb 0.00 in0.0 mm 0.00 in0.0 mm 0.06 in1.5 mm
07:01 AM 34.6°F1.4°C 39.8°F4.3°C 88% Calm Calm -- 29.47 in998.0 mb 0.00 in0.0 mm 0.00 in0.0 mm 0.06 in1.5 mm
07:04 AM 34.7°F1.5°C 39.5°F4.2°C 88% Calm Calm -- 29.47 in998.0 mb 0.00 in0.0 mm 0.00 in0.0 mm 0.06 in1.5 mm
07:07 AM 34.6°F1.4°C 39.5°F4.2°C 87% Calm Calm -- 29.47 in998.0 mb 0.00 in0.0 mm 0.00 in0.0 mm 0.06 in1.5 mm
07:10 AM 34.8°F1.6°C 39.6°F4.2°C 88% Calm Calm -- 29.48 in998.3 mb 0.00 in0.0 mm 0.00 in0.0 mm 0.06 in1.5 mm
07:13 AM 34.9°F1.6°C 39.5°F4.2°C 88% 0.8 mph WNW1.3 kmh WNW 0.8 mph1.3 kmh 29.48 in998.3 mb 0.00 in0.0 mm 0.00 in0.0 mm 0.06 in1.5 mm
07:16 AM 35.2°F1.8°C 39.5°F4.2°C 88% 0.8 mph W1.3 kmh W 0.8 mph1.3 kmh 29.48 in998.3 mb 0.00 in0.0 mm 0.00 in0.0 mm 0.06 in1.5 mm
07:19 AM 35.2°F1.8°C 39.5°F4.2°C 88% 2.0 mph NNW3.2 kmh NNW 2.0 mph3.2 kmh 29.48 in998.3 mb 0.00 in0.0 mm 0.00 in0.0 mm 0.06 in1.5 mm
07:22 AM 35.4°F1.9°C 39.7°F4.3°C 89% 4.4 mph NNW7.1 kmh NNW 4.4 mph7.1 kmh 29.48 in998.3 mb 0.00 in0.0 mm 0.00 in0.0 mm 0.06 in1.5 mm
07:25 AM 35.4°F1.9°C 39.9°F4.4°C 89% 0.4 mph W0.6 kmh W 0.4 mph0.6 kmh 29.48 in998.3 mb 0.00 in0.0 mm 0.00 in0.0 mm 0.06 in1.5 mm
07:28 AM 35.3°F1.8°C 39.6°F4.2°C 89% Calm Calm -- 29.47 in998.0 mb 0.00 in0.0 mm 0.00 in0.0 mm 0.06 in1.5 mm
07:31 AM 35.3°F1.8°C 39.7°F4.3°C 89% 2.8 mph NNW4.5 kmh NNW 2.9 mph4.7 kmh 29.48 in998.3 mb 0.00 in0.0 mm 0.00 in0.0 mm 0.06 in1.5 mm
07:34 AM 35.4°F1.9°C 39.5°F4.2°C 89% 3.2 mph W5.1 kmh W 3.2 mph5.1 kmh 29.48 in998.3 mb 0.00 in0.0 mm 0.00 in0.0 mm 0.06 in1.5 mm
07:37 AM 35.3°F1.8°C 39.5°F4.2°C 89% 3.6 mph W5.8 kmh W 3.6 mph5.8 kmh 29.48 in998.3 mb 0.00 in0.0 mm 0.00 in0.0 mm 0.06 in1.5 mm
07:40 AM 35.3°F1.8°C 39.5°F4.2°C 89% Calm Calm -- 29.48 in998.3 mb 0.00 in0.0 mm 0.00 in0.0 mm 0.06 in1.5 mm
07:43 AM 35.2°F1.8°C 39.4°F4.1°C 89% 1.6 mph W2.6 kmh W 1.6 mph2.6 kmh 29.48 in998.3 mb 0.00 in0.0 mm 0.00 in0.0 mm 0.06 in1.5 mm
07:46 AM 35.2°F1.8°C 39.2°F4.0°C 89% 1.6 mph W2.6 kmh W 1.6 mph2.6 kmh 29.48 in998.3 mb 0.00 in0.0 mm 0.00 in0.0 mm 0.06 in1.5 mm
07:49 AM 35.2°F1.8°C 39.6°F4.2°C 89% 3.6 mph W5.8 kmh W 3.6 mph5.8 kmh 29.48 in998.3 mb 0.00 in0.0 mm 0.00 in0.0 mm 0.06 in1.5 mm
07:52 AM 35.0°F1.7°C 39.7°F4.3°C 89% Calm Calm -- 29.48 in998.3 mb 0.00 in0.0 mm 0.00 in0.0 mm 0.06 in1.5 mm
07:55 AM 35.2°F1.8°C 39.3°F4.1°C 89% Calm Calm -- 29.48 in998.3 mb 0.00 in0.0 mm 0.00 in0.0 mm 0.06 in1.5 mm
07:58 AM 35.2°F1.8°C 39.5°F4.2°C 89% 0.8 mph NW1.3 kmh NW 0.8 mph1.3 kmh 29.49 in998.6 mb 0.00 in0.0 mm 0.00 in0.0 mm 0.06 in1.5 mm
08:01 AM 35.2°F1.8°C 39.2°F4.0°C 88% 2.4 mph W3.9 kmh W 2.4 mph3.9 kmh 29.48 in998.3 mb 0.00 in0.0 mm 0.00 in0.0 mm 0.06 in1.5 mm
08:04 AM 35.2°F1.8°C 39.4°F4.1°C 89% Calm Calm -- 29.49 in998.6 mb 0.00 in0.0 mm 0.00 in0.0 mm 0.06 in1.5 mm
08:07 AM 35.2°F1.8°C 39.4°F4.1°C 89% 1.6 mph W2.6 kmh W 1.6 mph2.6 kmh 29.48 in998.3 mb 0.00 in0.0 mm 0.00 in0.0 mm 0.06 in1.5 mm
08:10 AM 35.2°F1.8°C 39.4°F4.1°C 89% 1.6 mph NNW2.6 kmh NNW 1.6 mph2.6 kmh 29.48 in998.3 mb 0.00 in0.0 mm 0.00 in0.0 mm 0.06 in1.5 mm
08:13 AM 35.2°F1.8°C 39.2°F4.0°C 89% 2.4 mph WNW3.9 kmh WNW 2.4 mph3.9 kmh 29.48 in998.3 mb 0.00 in0.0 mm 0.00 in0.0 mm 0.06 in1.5 mm
08:16 AM 35.2°F1.8°C 39.4°F4.1°C 89% 1.6 mph NNW2.6 kmh NNW 1.6 mph2.6 kmh 29.48 in998.3 mb 0.00 in0.0 mm 0.00 in0.0 mm 0.06 in1.5 mm
08:19 AM 35.3°F1.8°C 39.4°F4.1°C 89% 2.0 mph NNW3.2 kmh NNW 2.0 mph3.2 kmh 29.48 in998.3 mb 0.00 in0.0 mm 0.00 in0.0 mm 0.06 in1.5 mm
08:22 AM 35.2°F1.8°C 39.3°F4.1°C 89% 1.6 mph NNW2.6 kmh NNW 1.6 mph2.6 kmh 29.49 in998.6 mb 0.00 in0.0 mm 0.00 in0.0 mm 0.06 in1.5 mm
08:25 AM 35.3°F1.8°C 39.3°F4.1°C 89% 0.4 mph NW0.6 kmh NW 0.4 mph0.6 kmh 29.49 in998.6 mb 0.00 in0.0 mm 0.00 in0.0 mm 0.06 in1.5 mm
08:28 AM 35.3°F1.8°C 39.3°F4.1°C 89% 0.4 mph NNW0.6 kmh NNW 0.4 mph0.6 kmh 29.49 in998.6 mb 0.00 in0.0 mm 0.00 in0.0 mm 0.06 in1.5 mm
08:31 AM 35.2°F1.8°C 38.9°F3.8°C 88% Calm Calm -- 29.49 in998.6 mb 0.00 in0.0 mm 0.00 in0.0 mm 0.06 in1.5 mm
08:34 AM 35.3°F1.8°C 39.2°F4.0°C 89% Calm Calm -- 29.49 in998.6 mb 0.00 in0.0 mm 0.00 in0.0 mm 0.06 in1.5 mm
08:37 AM 35.2°F1.8°C 39.3°F4.1°C 89% Calm Calm -- 29.49 in998.6 mb 0.00 in0.0 mm 0.00 in0.0 mm 0.06 in1.5 mm
08:40 AM 35.0°F1.7°C 39.1°F3.9°C 88% 0.8 mph WNW1.3 kmh WNW 0.8 mph1.3 kmh 29.48 in998.3 mb 0.00 in0.0 mm 0.00 in0.0 mm 0.06 in1.5 mm
08:43 AM 35.0°F1.7°C 39.3°F4.1°C 89% Calm Calm -- 29.48 in998.3 mb 0.00 in0.0 mm 0.00 in0.0 mm 0.06 in1.5 mm
08:46 AM 35.0°F1.7°C 39.3°F4.1°C 89% Calm Calm -- 29.49 in998.6 mb 0.00 in0.0 mm 0.00 in0.0 mm 0.06 in1.5 mm
08:49 AM 35.0°F1.7°C 39.2°F4.0°C 89% Calm Calm -- 29.49 in998.6 mb 0.00 in0.0 mm 0.00 in0.0 mm 0.06 in1.5 mm
08:52 AM 35.0°F1.7°C 39.3°F4.1°C 89% Calm Calm -- 29.48 in998.3 mb 0.00 in0.0 mm 0.00 in0.0 mm 0.06 in1.5 mm
08:55 AM 35.2°F1.8°C 39.3°F4.1°C 89% Calm Calm -- 29.48 in998.3 mb 0.00 in0.0 mm 0.00 in0.0 mm 0.06 in1.5 mm
08:58 AM 35.3°F1.8°C 39.0°F3.9°C 88% 1.2 mph W1.9 kmh W 1.2 mph1.9 kmh 29.49 in998.6 mb 0.00 in0.0 mm 0.00 in0.0 mm 0.06 in1.5 mm
09:01 AM 35.3°F1.8°C 39.3°F4.1°C 88% 2.0 mph W3.2 kmh W 2.0 mph3.2 kmh 29.49 in998.6 mb 0.00 in0.0 mm 0.00 in0.0 mm 0.06 in1.5 mm
09:04 AM 35.3°F1.8°C 39.3°F4.1°C 89% 0.4 mph WSW0.6 kmh WSW 0.4 mph0.6 kmh 29.50 in999.0 mb 0.00 in0.0 mm 0.00 in0.0 mm 0.06 in1.5 mm
09:07 AM 35.5°F1.9°C 39.6°F4.2°C 89% 1.6 mph W2.6 kmh W 1.6 mph2.6 kmh 29.49 in998.6 mb 0.00 in0.0 mm 0.00 in0.0 mm 0.06 in1.5 mm
09:10 AM 35.6°F2.0°C 39.5°F4.2°C 89% Calm Calm -- 29.49 in998.6 mb 0.00 in0.0 mm 0.00 in0.0 mm 0.06 in1.5 mm
09:13 AM 35.7°F2.1°C 39.4°F4.1°C 89% Calm Calm -- 29.49 in998.6 mb 0.00 in0.0 mm 0.00 in0.0 mm 0.06 in1.5 mm
09:16 AM 35.8°F2.1°C 39.4°F4.1°C 89% 2.8 mph NNW4.5 kmh NNW 2.8 mph4.5 kmh 29.49 in998.6 mb 0.00 in0.0 mm 0.00 in0.0 mm 0.06 in1.5 mm
09:19 AM 35.9°F2.2°C 39.7°F4.3°C 89% 0.8 mph W1.3 kmh W 0.8 mph1.3 kmh 29.50 in999.0 mb 0.00 in0.0 mm 0.00 in0.0 mm 0.06 in1.5 mm
09:22 AM 35.9°F2.2°C 39.4°F4.1°C 89% 2.4 mph W3.9 kmh W 2.4 mph3.9 kmh 29.50 in999.0 mb 0.00 in0.0 mm 0.00 in0.0 mm 0.06 in1.5 mm
09:25 AM 36.1°F2.3°C 39.5°F4.2°C 89% 2.4 mph W3.9 kmh W 2.4 mph3.9 kmh 29.50 in999.0 mb 0.00 in0.0 mm 0.00 in0.0 mm 0.06 in1.5 mm
09:28 AM 36.1°F2.3°C 39.3°F4.1°C 89% 1.2 mph W1.9 kmh W 1.2 mph1.9 kmh 29.50 in999.0 mb 0.00 in0.0 mm 0.00 in0.0 mm 0.06 in1.5 mm
09:31 AM 36.1°F2.3°C 39.4°F4.1°C 89% 1.6 mph NW2.6 kmh NW 1.6 mph2.6 kmh 29.50 in999.0 mb 0.00 in0.0 mm 0.00 in0.0 mm 0.06 in1.5 mm
09:34 AM 36.1°F2.3°C 39.5°F4.2°C 89% 2.0 mph W3.2 kmh W 2.0 mph3.2 kmh 29.50 in999.0 mb 0.00 in0.0 mm 0.00 in0.0 mm 0.06 in1.5 mm
09:37 AM 36.1°F2.3°C 39.7°F4.3°C 89% 3.6 mph WNW5.8 kmh WNW 3.7 mph6.0 kmh 29.50 in999.0 mb 0.00 in0.0 mm 0.00 in0.0 mm 0.06 in1.5 mm
09:40 AM 35.9°F2.2°C 39.3°F4.1°C 88% 2.8 mph NW4.5 kmh NW 2.9 mph4.7 kmh 29.50 in999.0 mb 0.00 in0.0 mm 0.00 in0.0 mm 0.06 in1.5 mm
09:43 AM 36.2°F2.3°C 39.7°F4.3°C 89% 0.8 mph NNW1.3 kmh NNW 0.8 mph1.3 kmh 29.50 in999.0 mb 0.00 in0.0 mm 0.00 in0.0 mm 0.06 in1.5 mm
09:46 AM 36.2°F2.3°C 39.5°F4.2°C 89% 2.0 mph W3.2 kmh W 2.0 mph3.2 kmh 29.50 in999.0 mb 0.00 in0.0 mm 0.00 in0.0 mm 0.06 in1.5 mm
09:49 AM 36.3°F2.4°C 39.5°F4.2°C 89% 1.2 mph NNW1.9 kmh NNW 1.2 mph1.9 kmh 29.50 in999.0 mb 0.00 in0.0 mm 0.00 in0.0 mm 0.06 in1.5 mm
09:52 AM 36.4°F2.4°C 39.1°F3.9°C 87% 1.6 mph WNW2.6 kmh WNW 1.6 mph2.6 kmh 29.50 in999.0 mb 0.00 in0.0 mm 0.00 in0.0 mm 0.06 in1.5 mm
09:55 AM 36.6°F2.6°C 39.6°F4.2°C 89% 1.6 mph NNW2.6 kmh NNW 1.6 mph2.6 kmh 29.50 in999.0 mb 0.00 in0.0 mm 0.00 in0.0 mm 0.06 in1.5 mm
09:58 AM 36.6°F2.6°C 39.4°F4.1°C 89% 3.6 mph W5.8 kmh W 3.7 mph6.0 kmh 29.50 in999.0 mb 0.00 in0.0 mm 0.00 in0.0 mm 0.06 in1.5 mm
10:01 AM 36.7°F2.6°C 39.6°F4.2°C 89% 2.8 mph NNW4.5 kmh NNW 2.8 mph4.5 kmh 29.50 in999.0 mb 0.00 in0.0 mm 0.00 in0.0 mm 0.06 in1.5 mm
10:04 AM 36.8°F2.7°C 39.6°F4.2°C 89% 0.8 mph W1.3 kmh W 0.8 mph1.3 kmh 29.50 in999.0 mb 0.00 in0.0 mm 0.00 in0.0 mm 0.06 in1.5 mm
10:07 AM 37.0°F2.8°C 39.3°F4.1°C 88% 3.6 mph NW5.8 kmh NW 3.6 mph5.8 kmh 29.50 in999.0 mb 0.00 in0.0 mm 0.00 in0.0 mm 0.06 in1.5 mm
10:10 AM 36.8°F2.7°C 39.6°F4.2°C 88% 1.6 mph NW2.6 kmh NW 1.6 mph2.6 kmh 29.50 in999.0 mb 0.00 in0.0 mm 0.00 in0.0 mm 0.06 in1.5 mm
10:13 AM 37.1°F2.8°C 39.7°F4.3°C 88% 1.2 mph W1.9 kmh W 1.2 mph1.9 kmh 29.50 in999.0 mb 0.00 in0.0 mm 0.00 in0.0 mm 0.06 in1.5 mm
10:16 AM 37.0°F2.8°C 39.4°F4.1°C 88% 1.6 mph NW2.6 kmh NW 1.6 mph2.6 kmh 29.50 in999.0 mb 0.00 in0.0 mm 0.00 in0.0 mm 0.06 in1.5 mm
10:19 AM 37.0°F2.8°C 39.6°F4.2°C 88% 2.4 mph NNW3.9 kmh NNW 2.4 mph3.9 kmh 29.51 in999.3 mb 0.00 in0.0 mm 0.00 in0.0 mm 0.06 in1.5 mm
10:22 AM 37.2°F2.9°C 39.6°F4.2°C 88% 3.6 mph W5.8 kmh W 3.6 mph5.8 kmh 29.51 in999.3 mb 0.00 in0.0 mm 0.00 in0.0 mm 0.06 in1.5 mm
10:25 AM 37.1°F2.8°C 39.8°F4.3°C 88% 1.6 mph W2.6 kmh W 1.6 mph2.6 kmh 29.50 in999.0 mb 0.00 in0.0 mm 0.00 in0.0 mm 0.06 in1.5 mm
10:28 AM 37.1°F2.8°C 39.8°F4.3°C 88% 0.8 mph NW1.3 kmh NW 0.8 mph1.3 kmh 29.50 in999.0 mb 0.00 in0.0 mm 0.00 in0.0 mm 0.06 in1.5 mm
10:31 AM 36.8°F2.7°C 39.8°F4.3°C 88% 3.2 mph NW5.1 kmh NW 3.2 mph5.1 kmh 29.51 in999.3 mb 0.00 in0.0 mm 0.00 in0.0 mm 0.06 in1.5 mm
10:34 AM 37.0°F2.8°C 39.7°F4.3°C 88% 0.8 mph NNW1.3 kmh NNW 0.8 mph1.3 kmh 29.51 in999.3 mb 0.00 in0.0 mm 0.00 in0.0 mm 0.06 in1.5 mm
10:37 AM 36.8°F2.7°C 39.7°F4.3°C 88% 2.4 mph NW3.9 kmh NW 2.4 mph3.9 kmh 29.50 in999.0 mb 0.00 in0.0 mm 0.00 in0.0 mm 0.06 in1.5 mm
10:40 AM 37.0°F2.8°C 39.6°F4.2°C 88% 2.4 mph NW3.9 kmh NW 2.4 mph3.9 kmh 29.51 in999.3 mb 0.00 in0.0 mm 0.00 in0.0 mm 0.06 in1.5 mm
10:43 AM 37.0°F2.8°C 39.5°F4.2°C 88% 3.6 mph WNW5.8 kmh WNW 3.7 mph6.0 kmh 29.51 in999.3 mb 0.00 in0.0 mm 0.00 in0.0 mm 0.06 in1.5 mm
10:46 AM 37.0°F2.8°C 39.4°F4.1°C 88% 3.2 mph NW5.1 kmh NW 3.2 mph5.1 kmh 29.51 in999.3 mb 0.00 in0.0 mm 0.00 in0.0 mm 0.06 in1.5 mm
10:49 AM 37.1°F2.8°C 39.4°F4.1°C 88% 4.8 mph NNW7.7 kmh NNW 4.9 mph7.9 kmh 29.51 in999.3 mb 0.00 in0.0 mm 0.00 in0.0 mm 0.06 in1.5 mm
10:52 AM 37.0°F2.8°C 39.6°F4.2°C 88% 2.8 mph NW4.5 kmh NW 2.9 mph4.7 kmh 29.51 in999.3 mb 0.00 in0.0 mm 0.00 in0.0 mm 0.06 in1.5 mm
10:55 AM 37.0°F2.8°C 39.6°F4.2°C 88% 3.6 mph NW5.8 kmh NW 3.7 mph6.0 kmh 29.52 in999.7 mb 0.00 in0.0 mm 0.00 in0.0 mm 0.06 in1.5 mm
10:58 AM 37.1°F2.8°C 39.7°F4.3°C 88% 2.8 mph NW4.5 kmh NW 2.8 mph4.5 kmh 29.52 in999.7 mb 0.00 in0.0 mm 0.00 in0.0 mm 0.06 in1.5 mm
11:01 AM 37.2°F2.9°C 39.6°F4.2°C 88% 1.2 mph W1.9 kmh W 1.2 mph1.9 kmh 29.52 in999.7 mb 0.00 in0.0 mm 0.00 in0.0 mm 0.06 in1.5 mm
11:04 AM 37.3°F2.9°C 39.8°F4.3°C 88% 5.6 mph NW9.0 kmh NW 5.6 mph9.0 kmh 29.52 in999.7 mb 0.00 in0.0 mm 0.00 in0.0 mm 0.06 in1.5 mm
11:07 AM 37.2°F2.9°C 39.5°F4.2°C 87% 3.6 mph WNW5.8 kmh WNW 3.6 mph5.8 kmh 29.51 in999.3 mb 0.00 in0.0 mm 0.00 in0.0 mm 0.06 in1.5 mm
11:10 AM 37.2°F2.9°C 39.9°F4.4°C 88% 2.4 mph W3.9 kmh W 2.4 mph3.9 kmh 29.51 in999.3 mb 0.00 in0.0 mm 0.00 in0.0 mm 0.06 in1.5 mm
11:13 AM 37.3°F2.9°C 39.6°F4.2°C 88% 3.6 mph NNW5.8 kmh NNW 3.6 mph5.8 kmh 29.52 in999.7 mb 0.00 in0.0 mm 0.00 in0.0 mm 0.06 in1.5 mm
11:16 AM 37.4°F3.0°C 39.6°F4.2°C 87% 2.0 mph NNW3.2 kmh NNW 2.0 mph3.2 kmh 29.51 in999.3 mb 0.00 in0.0 mm 0.00 in0.0 mm 0.06 in1.5 mm
11:19 AM 37.6°F3.1°C 39.7°F4.3°C 88% 3.2 mph W5.1 kmh W 3.3 mph5.3 kmh 29.52 in999.7 mb 0.00 in0.0 mm 0.00 in0.0 mm 0.06 in1.5 mm
11:22 AM 37.7°F3.2°C 39.7°F4.3°C 87% Calm Calm -- 29.52 in999.7 mb 0.00 in0.0 mm 0.00 in0.0 mm 0.06 in1.5 mm
11:25 AM 37.7°F3.2°C 39.9°F4.4°C 87% 4.8 mph W7.7 kmh W 4.8 mph7.7 kmh 29.51 in999.3 mb 0.00 in0.0 mm 0.00 in0.0 mm 0.06 in1.5 mm
11:28 AM 37.6°F3.1°C 39.8°F4.3°C 88% 3.6 mph NW5.8 kmh NW 3.6 mph5.8 kmh 29.51 in999.3 mb 0.00 in0.0 mm 0.00 in0.0 mm 0.06 in1.5 mm
11:31 AM 37.5°F3.1°C 39.9°F4.4°C 87% 2.4 mph NW3.9 kmh NW 2.4 mph3.9 kmh 29.52 in999.7 mb 0.00 in0.0 mm 0.00 in0.0 mm 0.06 in1.5 mm
11:34 AM 37.7°F3.2°C 39.9°F4.4°C 87% Calm Calm -- 29.51 in999.3 mb 0.00 in0.0 mm 0.00 in0.0 mm 0.06 in1.5 mm
11:37 AM 37.6°F3.1°C 39.8°F4.3°C 87% 1.6 mph NW2.6 kmh NW 1.6 mph2.6 kmh 29.51 in999.3 mb 0.00 in0.0 mm 0.00 in0.0 mm 0.06 in1.5 mm
11:40 AM 37.5°F3.1°C 39.6°F4.2°C 86% 3.6 mph WNW5.8 kmh WNW 3.7 mph6.0 kmh 29.51 in999.3 mb 0.00 in0.0 mm 0.00 in0.0 mm 0.06 in1.5 mm
11:43 AM 37.6°F3.1°C 39.4°F4.1°C 86% 3.6 mph WNW5.8 kmh WNW 3.7 mph6.0 kmh 29.51 in999.3 mb 0.00 in0.0 mm 0.00 in0.0 mm 0.06 in1.5 mm
11:46 AM 37.7°F3.2°C 39.4°F4.1°C 86% 2.8 mph W4.5 kmh W 2.9 mph4.7 kmh 29.51 in999.3 mb 0.00 in0.0 mm 0.00 in0.0 mm 0.06 in1.5 mm
11:49 AM 37.7°F3.2°C 39.5°F4.2°C 86% 4.9 mph NW7.9 kmh NW 4.9 mph7.9 kmh 29.52 in999.7 mb 0.00 in0.0 mm 0.00 in0.0 mm 0.06 in1.5 mm
11:52 AM 37.9°F3.3°C 39.7°F4.3°C 86% 0.4 mph NNW0.6 kmh NNW 0.4 mph0.6 kmh 29.51 in999.3 mb 0.00 in0.0 mm 0.00 in0.0 mm 0.06 in1.5 mm
11:55 AM 38.1°F3.4°C 39.5°F4.2°C 86% 4.0 mph WNW6.4 kmh WNW 4.0 mph6.4 kmh 29.52 in999.7 mb 0.00 in0.0 mm 0.00 in0.0 mm 0.06 in1.5 mm
11:58 AM 38.2°F3.4°C 39.7°F4.3°C 86% 2.8 mph NNW4.5 kmh NNW 2.8 mph4.5 kmh 29.51 in999.3 mb 0.00 in0.0 mm 0.00 in0.0 mm 0.06 in1.5 mm
12:01 PM 38.2°F3.4°C 39.6°F4.2°C 86% 6.4 mph WNW10.3 kmh WNW 6.4 mph10.3 kmh 29.51 in999.3 mb 0.00 in0.0 mm 0.00 in0.0 mm 0.06 in1.5 mm
12:04 PM 38.6°F3.7°C 39.8°F4.3°C 86% 0.8 mph W1.3 kmh W 0.8 mph1.3 kmh 29.51 in999.3 mb 0.00 in0.0 mm 0.00 in0.0 mm 0.06 in1.5 mm
12:07 PM 38.4°F3.6°C 39.7°F4.3°C 84% 3.2 mph WNW5.1 kmh WNW 3.2 mph5.1 kmh 29.51 in999.3 mb 0.00 in0.0 mm 0.00 in0.0 mm 0.06 in1.5 mm
12:10 PM 38.9°F3.8°C 39.8°F4.3°C 85% 2.8 mph NW4.5 kmh NW 2.8 mph4.5 kmh 29.51 in999.3 mb 0.00 in0.0 mm 0.00 in0.0 mm 0.06 in1.5 mm
12:13 PM 38.5°F3.6°C 39.8°F4.3°C 84% 4.4 mph WSW7.1 kmh WSW 4.4 mph7.1 kmh 29.51 in999.3 mb 0.00 in0.0 mm 0.00 in0.0 mm 0.06 in1.5 mm
12:16 PM 38.5°F3.6°C 39.4°F4.1°C 84% 4.8 mph WNW7.7 kmh WNW 4.8 mph7.7 kmh 29.51 in999.3 mb 0.00 in0.0 mm 0.00 in0.0 mm 0.06 in1.5 mm
12:19 PM 38.4°F3.6°C 39.1°F3.9°C 83% 1.2 mph NNW1.9 kmh NNW 1.2 mph1.9 kmh 29.51 in999.3 mb 0.00 in0.0 mm 0.00 in0.0 mm 0.06 in1.5 mm
12:22 PM 38.6°F3.7°C 39.4°F4.1°C 83% 2.0 mph W3.2 kmh W 2.0 mph3.2 kmh 29.51 in999.3 mb 0.00 in0.0 mm 0.00 in0.0 mm 0.06 in1.5 mm
12:25 PM 38.6°F3.7°C 38.9°F3.8°C 82% 4.4 mph W7.1 kmh W 4.5 mph7.2 kmh 29.51 in999.3 mb 0.00 in0.0 mm 0.00 in0.0 mm 0.06 in1.5 mm
12:28 PM 38.6°F3.7°C 39.1°F3.9°C 82% 1.2 mph WNW1.9 kmh WNW 1.2 mph1.9 kmh 29.51 in999.3 mb 0.00 in0.0 mm 0.00 in0.0 mm 0.06 in1.5 mm
12:31 PM 38.5°F3.6°C 39.1°F3.9°C 82% 3.2 mph W5.1 kmh W 3.2 mph5.1 kmh 29.51 in999.3 mb 0.00 in0.0 mm 0.00 in0.0 mm 0.06 in1.5 mm
12:34 PM 38.3°F3.5°C 39.0°F3.9°C 81% 2.8 mph NW4.5 kmh NW 2.8 mph4.5 kmh 29.51 in999.3 mb 0.00 in0.0 mm 0.00 in0.0 mm 0.06 in1.5 mm
12:37 PM 38.2°F3.4°C 39.0°F3.9°C 82% 1.2 mph NNW1.9 kmh NNW 1.2 mph1.9 kmh 29.50 in999.0 mb 0.00 in0.0 mm 0.00 in0.0 mm 0.06 in1.5 mm
12:40 PM 38.2°F3.4°C 38.8°F3.8°C 81% 7.2 mph W11.6 kmh W 7.2 mph11.6 kmh 29.51 in999.3 mb 0.00 in0.0 mm 0.00 in0.0 mm 0.06 in1.5 mm
12:43 PM 38.2°F3.4°C 39.1°F3.9°C 81% 3.2 mph WNW5.1 kmh WNW 3.3 mph5.3 kmh 29.51 in999.3 mb 0.00 in0.0 mm 0.00 in0.0 mm 0.06 in1.5 mm
12:46 PM 38.4°F3.6°C 39.0°F3.9°C 81% 2.0 mph NNW3.2 kmh NNW 2.0 mph3.2 kmh 29.51 in999.3 mb 0.00 in0.0 mm 0.00 in0.0 mm 0.06 in1.5 mm
12:49 PM 38.5°F3.6°C 38.3°F3.5°C 80% 2.8 mph WNW4.5 kmh WNW 2.8 mph4.5 kmh 29.50 in999.0 mb 0.00 in0.0 mm 0.00 in0.0 mm 0.06 in1.5 mm
12:52 PM 38.3°F3.5°C 38.8°F3.8°C 80% 6.0 mph NW9.7 kmh NW 6.1 mph9.8 kmh 29.50 in999.0 mb 0.00 in0.0 mm 0.00 in0.0 mm 0.06 in1.5 mm
12:55 PM 38.3°F3.5°C 38.7°F3.7°C 81% 0.8 mph W1.3 kmh W 0.8 mph1.3 kmh 29.50 in999.0 mb 0.00 in0.0 mm 0.00 in0.0 mm 0.06 in1.5 mm
12:58 PM 38.1°F3.4°C 38.5°F3.6°C 80% 4.4 mph NW7.1 kmh NW 4.5 mph7.2 kmh 29.50 in999.0 mb 0.00 in0.0 mm 0.00 in0.0 mm 0.06 in1.5 mm
01:01 PM 38.3°F3.5°C 38.4°F3.6°C 80% Calm Calm -- 29.50 in999.0 mb 0.00 in0.0 mm 0.00 in0.0 mm 0.06 in1.5 mm
01:04 PM 38.2°F3.4°C 39.0°F3.9°C 81% 2.0 mph NW3.2 kmh NW 2.0 mph3.2 kmh 29.50 in999.0 mb 0.00 in0.0 mm 0.00 in0.0 mm 0.06 in1.5 mm
01:07 PM 38.2°F3.4°C 38.6°F3.7°C 81% 3.6 mph WSW5.8 kmh WSW 3.6 mph5.8 kmh 29.50 in999.0 mb 0.00 in0.0 mm 0.00 in0.0 mm 0.06 in1.5 mm
01:10 PM 38.0°F3.3°C 38.7°F3.7°C 81% 5.6 mph NW9.0 kmh NW 5.6 mph9.0 kmh 29.50 in999.0 mb 0.00 in0.0 mm 0.00 in0.0 mm 0.06 in1.5 mm
01:13 PM 37.9°F3.3°C 38.3°F3.5°C 80% 0.4 mph WNW0.6 kmh WNW 0.4 mph0.6 kmh 29.50 in999.0 mb 0.00 in0.0 mm 0.00 in0.0 mm 0.06 in1.5 mm
01:19 PM 37.7°F3.2°C 38.2°F3.4°C 80% 5.7 mph NNW9.2 kmh NNW 5.7 mph9.2 kmh 29.50 in999.0 mb 0.00 in0.0 mm 0.00 in0.0 mm 0.06 in1.5 mm
01:22 PM 37.9°F3.3°C 38.4°F3.6°C 80% 0.8 mph 1.3 kmh 0.8 mph1.3 kmh 29.50 in999.0 mb 0.00 in0.0 mm 0.00 in0.0 mm 0.06 in1.5 mm
01:25 PM 38.5°F3.6°C 38.5°F3.6°C 81% 3.6 mph NW5.8 kmh NW 3.6 mph5.8 kmh 29.50 in999.0 mb 0.00 in0.0 mm 0.00 in0.0 mm 0.06 in1.5 mm
01:28 PM 38.4°F3.6°C 38.4°F3.6°C 80% 3.2 mph W5.1 kmh W 3.2 mph5.1 kmh 29.50 in999.0 mb 0.00 in0.0 mm 0.00 in0.0 mm 0.06 in1.5 mm
01:31 PM 38.2°F3.4°C 37.9°F3.3°C 79% 3.6 mph W5.8 kmh W 3.6 mph5.8 kmh 29.50 in999.0 mb 0.00 in0.0 mm 0.00 in0.0 mm 0.06 in1.5 mm
01:34 PM 38.2°F3.4°C 38.3°F3.5°C 80% 7.6 mph W12.2 kmh W 7.6 mph12.2 kmh 29.50 in999.0 mb 0.00 in0.0 mm 0.00 in0.0 mm 0.06 in1.5 mm
01:37 PM 38.0°F3.3°C 37.8°F3.2°C 79% 2.0 mph WNW3.2 kmh WNW 2.0 mph3.2 kmh 29.50 in999.0 mb 0.00 in0.0 mm 0.00 in0.0 mm 0.06 in1.5 mm
01:40 PM 38.1°F3.4°C 37.8°F3.2°C 79% 1.6 mph W2.6 kmh W 1.6 mph2.6 kmh 29.50 in999.0 mb 0.00 in0.0 mm 0.00 in0.0 mm 0.06 in1.5 mm
01:43 PM 38.2°F3.4°C 38.0°F3.3°C 79% 3.2 mph NW5.1 kmh NW 3.2 mph5.1 kmh 29.50 in999.0 mb 0.00 in0.0 mm 0.00 in0.0 mm 0.06 in1.5 mm
01:46 PM 37.7°F3.2°C 37.6°F3.1°C 78% 2.4 mph NNW3.9 kmh NNW 2.4 mph3.9 kmh 29.50 in999.0 mb 0.00 in0.0 mm 0.00 in0.0 mm 0.06 in1.5 mm
01:49 PM 37.5°F3.1°C 37.7°F3.2°C 78% 4.4 mph WNW7.1 kmh WNW 4.4 mph7.1 kmh 29.50 in999.0 mb 0.00 in0.0 mm 0.00 in0.0 mm 0.06 in1.5 mm
01:52 PM 37.9°F3.3°C 37.6°F3.1°C 78% Calm Calm -- 29.50 in999.0 mb 0.00 in0.0 mm 0.00 in0.0 mm 0.06 in1.5 mm
01:55 PM 37.6°F3.1°C 37.7°F3.2°C 79% 4.0 mph W6.4 kmh W 4.1 mph6.6 kmh 29.50 in999.0 mb 0.00 in0.0 mm 0.00 in0.0 mm 0.06 in1.5 mm
01:58 PM 37.5°F3.1°C 37.5°F3.1°C 78% 4.5 mph NW7.2 kmh NW 4.5 mph7.2 kmh 29.50 in999.0 mb 0.00 in0.0 mm 0.00 in0.0 mm 0.06 in1.5 mm
02:01 PM 37.5°F3.1°C 37.6°F3.1°C 79% 3.2 mph NW5.1 kmh NW 3.3 mph5.3 kmh 29.51 in999.3 mb 0.00 in0.0 mm 0.00 in0.0 mm 0.06 in1.5 mm
02:04 PM 37.9°F3.3°C 37.8°F3.2°C 79% 0.8 mph NW1.3 kmh NW 0.8 mph1.3 kmh 29.50 in999.0 mb 0.00 in0.0 mm 0.00 in0.0 mm 0.06 in1.5 mm
02:07 PM 37.9°F3.3°C 37.8°F3.2°C 79% 1.2 mph WNW1.9 kmh WNW 1.2 mph1.9 kmh 29.51 in999.3 mb 0.00 in0.0 mm 0.00 in0.0 mm 0.06 in1.5 mm
02:10 PM 38.0°F3.3°C 38.3°F3.5°C 79% 0.4 mph WNW0.6 kmh WNW 0.4 mph0.6 kmh 29.50 in999.0 mb 0.00 in0.0 mm 0.00 in0.0 mm 0.06 in1.5 mm
02:13 PM 38.0°F3.3°C 38.2°F3.4°C 80% Calm Calm -- 29.50 in999.0 mb 0.00 in0.0 mm 0.00 in0.0 mm 0.06 in1.5 mm
02:16 PM 38.1°F3.4°C 38.3°F3.5°C 80% 2.4 mph NNW3.9 kmh NNW 2.4 mph3.9 kmh 29.51 in999.3 mb 0.00 in0.0 mm 0.00 in0.0 mm 0.06 in1.5 mm
02:19 PM 38.2°F3.4°C 38.4°F3.6°C 80% 2.8 mph NNW4.5 kmh NNW 2.8 mph4.5 kmh 29.51 in999.3 mb 0.00 in0.0 mm 0.00 in0.0 mm 0.06 in1.5 mm
02:22 PM 37.9°F3.3°C 37.8°F3.2°C 78% 6.5 mph NNW10.5 kmh NNW 6.5 mph10.5 kmh 29.51 in999.3 mb 0.00 in0.0 mm 0.00 in0.0 mm 0.06 in1.5 mm
02:25 PM 37.7°F3.2°C 37.9°F3.3°C 79% 4.0 mph NNW6.4 kmh NNW 4.1 mph6.6 kmh 29.51 in999.3 mb 0.00 in0.0 mm 0.00 in0.0 mm 0.06 in1.5 mm
02:28 PM 37.9°F3.3°C 37.8°F3.2°C 78% 4.0 mph NNW6.4 kmh NNW 4.0 mph6.4 kmh 29.50 in999.0 mb 0.00 in0.0 mm 0.00 in0.0 mm 0.06 in1.5 mm
02:31 PM 38.0°F3.3°C 38.0°F3.3°C 79% 0.8 mph W1.3 kmh W 0.8 mph1.3 kmh 29.50 in999.0 mb 0.00 in0.0 mm 0.00 in0.0 mm 0.06 in1.5 mm
02:34 PM 38.0°F3.3°C 38.2°F3.4°C 79% 2.8 mph W4.5 kmh W 2.8 mph4.5 kmh 29.50 in999.0 mb 0.00 in0.0 mm 0.00 in0.0 mm 0.06 in1.5 mm
02:37 PM 37.7°F3.2°C 38.0°F3.3°C 79% 4.4 mph WSW7.1 kmh WSW 4.5 mph7.2 kmh 29.50 in999.0 mb 0.00 in0.0 mm 0.00 in0.0 mm 0.06 in1.5 mm
02:40 PM 37.6°F3.1°C 38.0°F3.3°C 79% 6.0 mph W9.7 kmh W 6.0 mph9.7 kmh 29.50 in999.0 mb 0.00 in0.0 mm 0.00 in0.0 mm 0.06 in1.5 mm
02:43 PM 37.7°F3.2°C 37.9°F3.3°C 79% 2.0 mph W3.2 kmh W 2.0 mph3.2 kmh 29.50 in999.0 mb 0.00 in0.0 mm 0.00 in0.0 mm 0.06 in1.5 mm
02:46 PM 37.7°F3.2°C 38.1°F3.4°C 79% 1.2 mph SW1.9 kmh SW 1.2 mph1.9 kmh 29.50 in999.0 mb 0.00 in0.0 mm 0.00 in0.0 mm 0.06 in1.5 mm
02:49 PM 37.9°F3.3°C 37.9°F3.3°C 79% Calm Calm -- 29.50 in999.0 mb 0.00 in0.0 mm 0.00 in0.0 mm 0.06 in1.5 mm
02:52 PM 38.0°F3.3°C 38.4°F3.6°C 80% Calm Calm -- 29.50 in999.0 mb 0.00 in0.0 mm 0.00 in0.0 mm 0.06 in1.5 mm
02:55 PM 37.7°F3.2°C 38.0°F3.3°C 79% 0.8 mph WNW1.3 kmh WNW 0.8 mph1.3 kmh 29.50 in999.0 mb 0.00 in0.0 mm 0.00 in0.0 mm 0.06 in1.5 mm
02:58 PM 37.5°F3.1°C 37.9°F3.3°C 78% 3.6 mph W5.8 kmh W 3.7 mph6.0 kmh 29.50 in999.0 mb 0.00 in0.0 mm 0.00 in0.0 mm 0.06 in1.5 mm
03:01 PM 37.6°F3.1°C 37.8°F3.2°C 78% 2.0 mph W3.2 kmh W 2.0 mph3.2 kmh 29.50 in999.0 mb 0.00 in0.0 mm 0.00 in0.0 mm 0.06 in1.5 mm
03:04 PM 37.5°F3.1°C 38.2°F3.4°C 79% 5.2 mph WSW8.4 kmh WSW 5.2 mph8.4 kmh 29.50 in999.0 mb 0.00 in0.0 mm 0.00 in0.0 mm 0.06 in1.5 mm
03:07 PM 37.6°F3.1°C 38.0°F3.3°C 78% 4.9 mph W7.9 kmh W 4.9 mph7.9 kmh 29.51 in999.3 mb 0.00 in0.0 mm 0.00 in0.0 mm 0.06 in1.5 mm
03:10 PM 38.3°F3.5°C 38.3°F3.5°C 79% 2.0 mph W3.2 kmh W 2.0 mph3.2 kmh 29.51 in999.3 mb 0.00 in0.0 mm 0.00 in0.0 mm 0.06 in1.5 mm
03:13 PM 38.0°F3.3°C 37.9°F3.3°C 78% 2.4 mph NNW3.9 kmh NNW 2.4 mph3.9 kmh 29.50 in999.0 mb 0.00 in0.0 mm 0.00 in0.0 mm 0.06 in1.5 mm
03:16 PM 38.2°F3.4°C 38.3°F3.5°C 79% Calm Calm -- 29.50 in999.0 mb 0.00 in0.0 mm 0.00 in0.0 mm 0.06 in1.5 mm
03:19 PM 38.4°F3.6°C 38.3°F3.5°C 79% 2.4 mph NNW3.9 kmh NNW 2.4 mph3.9 kmh 29.50 in999.0 mb 0.00 in0.0 mm 0.00 in0.0 mm 0.06 in1.5 mm
03:22 PM 38.1°F3.4°C 38.2°F3.4°C 78% 1.6 mph W2.6 kmh W 1.6 mph2.6 kmh 29.50 in999.0 mb 0.00 in0.0 mm 0.00 in0.0 mm 0.06 in1.5 mm
03:25 PM 38.2°F3.4°C 38.3°F3.5°C 78% 3.6 mph W5.8 kmh W 3.6 mph5.8 kmh 29.50 in999.0 mb 0.00 in0.0 mm 0.00 in0.0 mm 0.06 in1.5 mm
03:28 PM 38.3°F3.5°C 38.2°F3.4°C 78% 0.8 mph W1.3 kmh W 0.8 mph1.3 kmh 29.50 in999.0 mb 0.00 in0.0 mm 0.00 in0.0 mm 0.06 in1.5 mm
03:31 PM 38.1°F3.4°C 38.0°F3.3°C 78% 3.6 mph SW5.8 kmh SW 3.6 mph5.8 kmh 29.50 in999.0 mb 0.00 in0.0 mm 0.00 in0.0 mm 0.06 in1.5 mm
03:34 PM 37.9°F3.3°C 37.9°F3.3°C 77% 4.8 mph NNW7.7 kmh NNW 4.8 mph7.7 kmh 29.50 in999.0 mb 0.00 in0.0 mm 0.00 in0.0 mm 0.06 in1.5 mm
03:37 PM 37.7°F3.2°C 37.7°F3.2°C 77% 3.2 mph W5.1 kmh W 3.2 mph5.1 kmh 29.51 in999.3 mb 0.00 in0.0 mm 0.00 in0.0 mm 0.06 in1.5 mm
03:40 PM 37.5°F3.1°C 37.6°F3.1°C 76% 6.4 mph NNW10.3 kmh NNW 6.4 mph10.3 kmh 29.51 in999.3 mb 0.00 in0.0 mm 0.00 in0.0 mm 0.06 in1.5 mm
03:43 PM 37.2°F2.9°C 37.7°F3.2°C 77% 4.0 mph W6.4 kmh W 4.1 mph6.6 kmh 29.51 in999.3 mb 0.00 in0.0 mm 0.00 in0.0 mm 0.06 in1.5 mm
03:46 PM 37.4°F3.0°C 37.5°F3.1°C 77% 2.8 mph W4.5 kmh W 2.8 mph4.5 kmh 29.51 in999.3 mb 0.00 in0.0 mm 0.00 in0.0 mm 0.06 in1.5 mm
03:49 PM 37.4°F3.0°C 38.0°F3.3°C 78% 2.0 mph NNW3.2 kmh NNW 2.0 mph3.2 kmh 29.51 in999.3 mb 0.00 in0.0 mm 0.00 in0.0 mm 0.06 in1.5 mm
03:52 PM 37.4°F3.0°C 37.4°F3.0°C 77% 6.0 mph WSW9.7 kmh WSW 6.1 mph9.8 kmh 29.51 in999.3 mb 0.00 in0.0 mm 0.00 in0.0 mm 0.06 in1.5 mm
03:55 PM 37.3°F2.9°C 37.5°F3.1°C 77% 2.0 mph W3.2 kmh W 2.0 mph3.2 kmh 29.51 in999.3 mb 0.00 in0.0 mm 0.00 in0.0 mm 0.06 in1.5 mm
03:58 PM 37.1°F2.8°C 37.0°F2.8°C 76% 4.8 mph W7.7 kmh W 4.8 mph7.7 kmh 29.50 in999.0 mb 0.00 in0.0 mm 0.00 in0.0 mm 0.06 in1.5 mm
04:01 PM 37.0°F2.8°C 37.1°F2.8°C 77% 4.9 mph WNW7.9 kmh WNW 4.9 mph7.9 kmh 29.52 in999.7 mb 0.00 in0.0 mm 0.00 in0.0 mm 0.06 in1.5 mm
04:04 PM 36.8°F2.7°C 37.2°F2.9°C 77% 2.0 mph W3.2 kmh W 2.0 mph3.2 kmh 29.52 in999.7 mb 0.00 in0.0 mm 0.00 in0.0 mm 0.06 in1.5 mm
04:07 PM 36.8°F2.7°C 37.5°F3.1°C 77% 4.4 mph W7.1 kmh W 4.5 mph7.2 kmh 29.52 in999.7 mb 0.00 in0.0 mm 0.00 in0.0 mm 0.06 in1.5 mm
04:10 PM 36.6°F2.6°C 37.1°F2.8°C 77% 0.4 mph W0.6 kmh W 0.4 mph0.6 kmh 29.52 in999.7 mb 0.00 in0.0 mm 0.00 in0.0 mm 0.06 in1.5 mm
04:13 PM 36.6°F2.6°C 37.4°F3.0°C 78% Calm Calm -- 29.52 in999.7 mb 0.00 in0.0 mm 0.00 in0.0 mm 0.06 in1.5 mm
04:16 PM 36.5°F2.5°C 37.3°F2.9°C 77% 2.8 mph WNW4.5 kmh WNW 2.9 mph4.7 kmh 29.52 in999.7 mb 0.00 in0.0 mm 0.00 in0.0 mm 0.06 in1.5 mm
04:19 PM 36.4°F2.4°C 37.5°F3.1°C 77% 4.4 mph W7.1 kmh W 4.4 mph7.1 kmh 29.52 in999.7 mb 0.00 in0.0 mm 0.00 in0.0 mm 0.06 in1.5 mm
04:22 PM 36.3°F2.4°C 37.1°F2.8°C 77% 2.8 mph NNW4.5 kmh NNW 2.8 mph4.5 kmh 29.52 in999.7 mb 0.00 in0.0 mm 0.00 in0.0 mm 0.06 in1.5 mm
04:25 PM 36.2°F2.3°C 37.3°F2.9°C 78% 2.4 mph W3.9 kmh W 2.4 mph3.9 kmh 29.52 in999.7 mb 0.00 in0.0 mm 0.00 in0.0 mm 0.06 in1.5 mm
04:28 PM 36.2°F2.3°C 37.3°F2.9°C 78% 4.8 mph NNW7.7 kmh NNW 4.8 mph7.7 kmh 29.52 in999.7 mb 0.00 in0.0 mm 0.00 in0.0 mm 0.06 in1.5 mm
04:31 PM 35.9°F2.2°C 37.5°F3.1°C 78% 3.2 mph WSW5.1 kmh WSW 3.2 mph5.1 kmh 29.51 in999.3 mb 0.00 in0.0 mm 0.00 in0.0 mm 0.06 in1.5 mm
04:34 PM 35.8°F2.1°C 37.3°F2.9°C 78% 2.4 mph W3.9 kmh W 2.4 mph3.9 kmh 29.52 in999.7 mb 0.00 in0.0 mm 0.00 in0.0 mm 0.06 in1.5 mm
04:37 PM 35.8°F2.1°C 37.5°F3.1°C 79% 4.0 mph WNW6.4 kmh WNW 4.0 mph6.4 kmh 29.52 in999.7 mb 0.00 in0.0 mm 0.00 in0.0 mm 0.06 in1.5 mm
04:40 PM 35.8°F2.1°C 37.2°F2.9°C 78% 2.0 mph W3.2 kmh W 2.0 mph3.2 kmh 29.52 in999.7 mb 0.00 in0.0 mm 0.00 in0.0 mm 0.06 in1.5 mm
04:43 PM 35.7°F2.1°C 37.3°F2.9°C 79% 5.7 mph W9.2 kmh W 5.7 mph9.2 kmh 29.52 in999.7 mb 0.00 in0.0 mm 0.00 in0.0 mm 0.06 in1.5 mm
04:46 PM 35.7°F2.1°C 37.3°F2.9°C 78% 5.3 mph WNW8.5 kmh WNW 5.3 mph8.5 kmh 29.52 in999.7 mb 0.00 in0.0 mm 0.00 in0.0 mm 0.06 in1.5 mm
04:49 PM 35.6°F2.0°C 37.1°F2.8°C 79% 5.3 mph W8.5 kmh W 5.3 mph8.5 kmh 29.52 in999.7 mb 0.00 in0.0 mm 0.00 in0.0 mm 0.06 in1.5 mm
04:52 PM 35.5°F1.9°C 37.1°F2.8°C 79% 3.6 mph NNW5.8 kmh NNW 3.7 mph6.0 kmh 29.52 in999.7 mb 0.00 in0.0 mm 0.00 in0.0 mm 0.06 in1.5 mm
04:55 PM 35.3°F1.8°C 37.0°F2.8°C 78% Calm Calm -- 29.52 in999.7 mb 0.00 in0.0 mm 0.00 in0.0 mm 0.06 in1.5 mm
04:58 PM 35.3°F1.8°C 37.3°F2.9°C 79% Calm Calm -- 29.52 in999.7 mb 0.00 in0.0 mm 0.00 in0.0 mm 0.06 in1.5 mm
05:01 PM 35.3°F1.8°C 37.1°F2.8°C 79% 4.5 mph W7.2 kmh W 4.5 mph7.2 kmh 29.52 in999.7 mb 0.00 in0.0 mm 0.00 in0.0 mm 0.06 in1.5 mm
05:04 PM 35.0°F1.7°C 37.1°F2.8°C 79% 4.8 mph WSW7.7 kmh WSW 4.9 mph7.9 kmh 29.52 in999.7 mb 0.00 in0.0 mm 0.00 in0.0 mm 0.06 in1.5 mm
05:07 PM 34.9°F1.6°C 37.0°F2.8°C 79% 4.0 mph W6.4 kmh W 4.0 mph6.4 kmh 29.52 in999.7 mb 0.00 in0.0 mm 0.00 in0.0 mm 0.06 in1.5 mm
05:10 PM 34.8°F1.6°C 36.8°F2.7°C 79% 0.4 mph NW0.6 kmh NW 0.4 mph0.6 kmh 29.53 in1000.0 mb 0.00 in0.0 mm 0.00 in0.0 mm 0.06 in1.5 mm
05:13 PM 34.6°F1.4°C 37.1°F2.8°C 80% 5.2 mph WSW8.4 kmh WSW 5.2 mph8.4 kmh 29.52 in999.7 mb 0.00 in0.0 mm 0.00 in0.0 mm 0.06 in1.5 mm
05:16 PM 34.4°F1.3°C 37.0°F2.8°C 80% 2.4 mph WSW3.9 kmh WSW 2.4 mph3.9 kmh 29.52 in999.7 mb 0.00 in0.0 mm 0.00 in0.0 mm 0.06 in1.5 mm
05:19 PM 34.0°F1.1°C 36.7°F2.6°C 80% 7.6 mph WNW12.2 kmh WNW 7.6 mph12.2 kmh 29.52 in999.7 mb 0.00 in0.0 mm 0.00 in0.0 mm 0.06 in1.5 mm
05:22 PM 33.7°F0.9°C 36.3°F2.4°C 79% 4.8 mph W7.7 kmh W 4.9 mph7.9 kmh 29.52 in999.7 mb 0.00 in0.0 mm 0.00 in0.0 mm 0.06 in1.5 mm
05:25 PM 33.5°F0.8°C 36.2°F2.3°C 79% 3.6 mph SSW5.8 kmh SSW 3.6 mph5.8 kmh 29.52 in999.7 mb 0.00 in0.0 mm 0.00 in0.0 mm 0.06 in1.5 mm
05:28 PM 33.2°F0.7°C 35.9°F2.2°C 78% 5.3 mph W8.5 kmh W 5.3 mph8.5 kmh 29.53 in1000.0 mb 0.00 in0.0 mm 0.00 in0.0 mm 0.06 in1.5 mm
05:31 PM 33.1°F0.6°C 35.7°F2.1°C 78% 4.4 mph W7.1 kmh W 4.5 mph7.2 kmh 29.54 in1000.3 mb 0.00 in0.0 mm 0.00 in0.0 mm 0.06 in1.5 mm
05:34 PM 33.2°F0.7°C 35.6°F2.0°C 78% 2.4 mph WNW3.9 kmh WNW 2.4 mph3.9 kmh 29.53 in1000.0 mb 0.00 in0.0 mm 0.00 in0.0 mm 0.06 in1.5 mm
05:37 PM 33.2°F0.7°C 35.5°F1.9°C 79% 3.2 mph W5.1 kmh W 3.2 mph5.1 kmh 29.54 in1000.3 mb 0.00 in0.0 mm 0.00 in0.0 mm 0.06 in1.5 mm
05:40 PM 33.2°F0.7°C 35.8°F2.1°C 78% 1.2 mph W1.9 kmh W 1.2 mph1.9 kmh 29.54 in1000.3 mb 0.00 in0.0 mm 0.00 in0.0 mm 0.06 in1.5 mm
05:43 PM 33.2°F0.7°C 35.6°F2.0°C 79% 4.0 mph W6.4 kmh W 4.0 mph6.4 kmh 29.54 in1000.3 mb 0.00 in0.0 mm 0.00 in0.0 mm 0.06 in1.5 mm
05:46 PM 32.9°F0.5°C 35.4°F1.9°C 78% 2.4 mph NW3.9 kmh NW 2.5 mph4.0 kmh 29.54 in1000.3 mb 0.00 in0.0 mm 0.00 in0.0 mm 0.06 in1.5 mm
05:49 PM 32.7°F0.4°C 35.2°F1.8°C 78% 2.0 mph NW3.2 kmh NW 2.0 mph3.2 kmh 29.54 in1000.3 mb 0.00 in0.0 mm 0.00 in0.0 mm 0.06 in1.5 mm
05:52 PM 32.6°F0.3°C 35.5°F1.9°C 79% 3.6 mph NW5.8 kmh NW 3.6 mph5.8 kmh 29.54 in1000.3 mb 0.00 in0.0 mm 0.00 in0.0 mm 0.06 in1.5 mm
05:55 PM 32.6°F0.3°C 35.6°F2.0°C 79% 4.2 mph NNW6.8 kmh NNW 4.2 mph6.8 kmh 29.54 in1000.3 mb 0.00 in0.0 mm 0.00 in0.0 mm 0.06 in1.5 mm
05:58 PM 32.7°F0.4°C 35.6°F2.0°C 79% 0.8 mph NNW1.3 kmh NNW 0.8 mph1.3 kmh 29.54 in1000.3 mb 0.00 in0.0 mm 0.00 in0.0 mm 0.06 in1.5 mm
06:01 PM 32.6°F0.3°C 35.7°F2.1°C 80% Calm Calm -- 29.54 in1000.3 mb 0.00 in0.0 mm 0.00 in0.0 mm 0.06 in1.5 mm
06:04 PM 32.6°F0.3°C 35.5°F1.9°C 80% 0.4 mph WSW0.6 kmh WSW 0.4 mph0.6 kmh 29.54 in1000.3 mb 0.00 in0.0 mm 0.00 in0.0 mm 0.06 in1.5 mm
06:07 PM 32.6°F0.3°C 35.7°F2.1°C 80% 0.4 mph WSW0.6 kmh WSW 0.4 mph0.6 kmh 29.54 in1000.3 mb 0.00 in0.0 mm 0.00 in0.0 mm 0.06 in1.5 mm
06:10 PM 32.1°F0.1°C 35.6°F2.0°C 80% Calm Calm -- 29.54 in1000.3 mb 0.00 in0.0 mm 0.00 in0.0 mm 0.06 in1.5 mm
06:13 PM 31.7°F-0.2°C 35.4°F1.9°C 80% Calm Calm -- 29.54 in1000.3 mb 0.00 in0.0 mm 0.00 in0.0 mm 0.06 in1.5 mm
06:16 PM 31.4°F-0.3°C 35.5°F1.9°C 80% Calm Calm -- 29.54 in1000.3 mb 0.00 in0.0 mm 0.00 in0.0 mm 0.06 in1.5 mm
06:19 PM 31.4°F-0.3°C 35.3°F1.8°C 80% Calm Calm -- 29.55 in1000.7 mb 0.00 in0.0 mm 0.00 in0.0 mm 0.06 in1.5 mm
06:22 PM 31.3°F-0.4°C 35.2°F1.8°C 80% Calm Calm -- 29.55 in1000.7 mb 0.00 in0.0 mm 0.00 in0.0 mm 0.06 in1.5 mm
06:25 PM 31.4°F-0.3°C 35.4°F1.9°C 81% Calm Calm -- 29.54 in1000.3 mb 0.00 in0.0 mm 0.00 in0.0 mm 0.06 in1.5 mm
06:28 PM 31.6°F-0.2°C 35.4°F1.9°C 81% Calm Calm -- 29.55 in1000.7 mb 0.00 in0.0 mm 0.00 in0.0 mm 0.06 in1.5 mm
06:31 PM 31.2°F-0.4°C 35.5°F1.9°C 81% Calm Calm -- 29.55 in1000.7 mb 0.00 in0.0 mm 0.00 in0.0 mm 0.06 in1.5 mm
06:34 PM 31.1°F-0.5°C 35.3°F1.8°C 81% Calm Calm -- 29.55 in1000.7 mb 0.00 in0.0 mm 0.00 in0.0 mm 0.06 in1.5 mm
06:37 PM 30.8°F-0.7°C 34.9°F1.6°C 81% Calm Calm -- 29.55 in1000.7 mb 0.00 in0.0 mm 0.00 in0.0 mm 0.06 in1.5 mm
06:40 PM 30.5°F-0.8°C 35.1°F1.7°C 81% Calm Calm -- 29.55 in1000.7 mb 0.00 in0.0 mm 0.00 in0.0 mm 0.06 in1.5 mm
06:43 PM 30.0°F-1.1°C 34.9°F1.6°C 81% Calm Calm -- 29.54 in1000.3 mb 0.00 in0.0 mm 0.00 in0.0 mm 0.06 in1.5 mm
06:46 PM 29.8°F-1.2°C 34.7°F1.5°C 81% Calm Calm -- 29.55 in1000.7 mb 0.00 in0.0 mm 0.00 in0.0 mm 0.06 in1.5 mm
06:49 PM 29.9°F-1.2°C 34.6°F1.4°C 81% Calm Calm -- 29.55 in1000.7 mb 0.00 in0.0 mm 0.00 in0.0 mm 0.06 in1.5 mm
06:52 PM 29.5°F-1.4°C 34.5°F1.4°C 82% Calm Calm -- 29.55 in1000.7 mb 0.00 in0.0 mm 0.00 in0.0 mm 0.06 in1.5 mm
06:55 PM 29.0°F-1.7°C 34.3°F1.3°C 82% Calm Calm -- 29.55 in1000.7 mb 0.00 in0.0 mm 0.00 in0.0 mm 0.06 in1.5 mm
06:58 PM 29.0°F-1.7°C 34.2°F1.2°C 81% Calm Calm -- 29.54 in1000.3 mb 0.00 in0.0 mm 0.00 in0.0 mm 0.06 in1.5 mm
07:01 PM 28.6°F-1.9°C 34.2°F1.2°C 82% Calm Calm -- 29.54 in1000.3 mb 0.00 in0.0 mm 0.00 in0.0 mm 0.06 in1.5 mm
07:04 PM 28.6°F-1.9°C 33.6°F0.9°C 81% Calm Calm -- 29.54 in1000.3 mb 0.00 in0.0 mm 0.00 in0.0 mm 0.06 in1.5 mm
07:07 PM 28.5°F-1.9°C 33.9°F1.1°C 82% Calm Calm -- 29.54 in1000.3 mb 0.00 in0.0 mm 0.00 in0.0 mm 0.06 in1.5 mm
07:10 PM 28.5°F-1.9°C 34.0°F1.1°C 82% Calm Calm -- 29.54 in1000.3 mb 0.00 in0.0 mm 0.00 in0.0 mm 0.06 in1.5 mm
07:13 PM 28.5°F-1.9°C 33.9°F1.1°C 82% Calm Calm -- 29.55 in1000.7 mb 0.00 in0.0 mm 0.00 in0.0 mm 0.06 in1.5 mm
07:16 PM 28.3°F-2.1°C 34.0°F1.1°C 82% Calm Calm -- 29.55 in1000.7 mb 0.00 in0.0 mm 0.00 in0.0 mm 0.06 in1.5 mm
07:19 PM 28.9°F-1.7°C 33.9°F1.1°C 82% Calm Calm -- 29.55 in1000.7 mb 0.00 in0.0 mm 0.00 in0.0 mm 0.06 in1.5 mm
07:22 PM 29.3°F-1.5°C 33.8°F1.0°C 83% Calm Calm -- 29.55 in1000.7 mb 0.00 in0.0 mm 0.00 in0.0 mm 0.06 in1.5 mm
07:25 PM 29.8°F-1.2°C 34.0°F1.1°C 83% Calm Calm -- 29.55 in1000.7 mb 0.00 in0.0 mm 0.00 in0.0 mm 0.06 in1.5 mm
07:28 PM 29.6°F-1.3°C 34.3°F1.3°C 84% Calm Calm -- 29.55 in1000.7 mb 0.00 in0.0 mm 0.00 in0.0 mm 0.06 in1.5 mm
07:31 PM 29.8°F-1.2°C 34.1°F1.2°C 84% Calm Calm -- 29.55 in1000.7 mb 0.00 in0.0 mm 0.00 in0.0 mm 0.06 in1.5 mm
07:34 PM 29.0°F-1.7°C 34.0°F1.1°C 83% Calm Calm -- 29.55 in1000.7 mb 0.00 in0.0 mm 0.00 in0.0 mm 0.06 in1.5 mm
07:37 PM 28.6°F-1.9°C 33.8°F1.0°C 83% Calm Calm -- 29.55 in1000.7 mb 0.00 in0.0 mm 0.00 in0.0 mm 0.06 in1.5 mm
07:40 PM 28.4°F-2.0°C 33.3°F0.7°C 83% Calm Calm -- 29.55 in1000.7 mb 0.00 in0.0 mm 0.00 in0.0 mm 0.06 in1.5 mm
07:43 PM 28.4°F-2.0°C 33.7°F0.9°C 83% Calm Calm -- 29.55 in1000.7 mb 0.00 in0.0 mm 0.00 in0.0 mm 0.06 in1.5 mm
07:46 PM 28.6°F-1.9°C 33.5°F0.8°C 83% Calm Calm -- 29.55 in1000.7 mb 0.00 in0.0 mm 0.00 in0.0 mm 0.06 in1.5 mm
07:49 PM 28.4°F-2.0°C 33.5°F0.8°C 83% Calm Calm -- 29.55 in1000.7 mb 0.00 in0.0 mm 0.00 in0.0 mm 0.06 in1.5 mm
07:52 PM 28.2°F-2.1°C 33.4°F0.8°C 83% Calm Calm -- 29.55 in1000.7 mb 0.00 in0.0 mm 0.00 in0.0 mm 0.06 in1.5 mm
07:55 PM 28.5°F-1.9°C 33.4°F0.8°C 84% Calm Calm -- 29.55 in1000.7 mb 0.00 in0.0 mm 0.00 in0.0 mm 0.06 in1.5 mm
07:58 PM 29.0°F-1.7°C 33.6°F0.9°C 84% Calm Calm -- 29.55 in1000.7 mb 0.00 in0.0 mm 0.00 in0.0 mm 0.06 in1.5 mm
08:01 PM 28.7°F-1.8°C 33.4°F0.8°C 84% Calm Calm -- 29.55 in1000.7 mb 0.00 in0.0 mm 0.00 in0.0 mm 0.06 in1.5 mm
08:04 PM 29.0°F-1.7°C 33.6°F0.9°C 84% Calm Calm -- 29.55 in1000.7 mb 0.00 in0.0 mm 0.00 in0.0 mm 0.06 in1.5 mm
08:07 PM 29.0°F-1.7°C 33.7°F0.9°C 84% Calm Calm -- 29.55 in1000.7 mb 0.00 in0.0 mm 0.00 in0.0 mm 0.06 in1.5 mm
08:10 PM 29.1°F-1.6°C 33.7°F0.9°C 85% Calm Calm -- 29.55 in1000.7 mb 0.00 in0.0 mm 0.00 in0.0 mm 0.06 in1.5 mm
08:13 PM 29.2°F-1.6°C 33.7°F0.9°C 85% Calm Calm -- 29.55 in1000.7 mb 0.00 in0.0 mm 0.00 in0.0 mm 0.06 in1.5 mm
08:16 PM 29.3°F-1.5°C 33.6°F0.9°C 86% Calm Calm -- 29.55 in1000.7 mb 0.00 in0.0 mm 0.00 in0.0 mm 0.06 in1.5 mm
08:19 PM 29.3°F-1.5°C 33.7°F0.9°C 86% Calm Calm -- 29.56 in1001.0 mb 0.00 in0.0 mm 0.00 in0.0 mm 0.06 in1.5 mm
08:22 PM 29.6°F-1.3°C 34.1°F1.2°C 86% Calm Calm -- 29.55 in1000.7 mb 0.00 in0.0 mm 0.00 in0.0 mm 0.06 in1.5 mm
08:25 PM 29.8°F-1.2°C 33.8°F1.0°C 86% Calm Calm -- 29.55 in1000.7 mb 0.00 in0.0 mm 0.00 in0.0 mm 0.06 in1.5 mm
08:28 PM 30.0°F-1.1°C 34.2°F1.2°C 87% Calm Calm -- 29.55 in1000.7 mb 0.00 in0.0 mm 0.00 in0.0 mm 0.06 in1.5 mm
08:31 PM 30.0°F-1.1°C 34.0°F1.1°C 87% Calm Calm -- 29.56 in1001.0 mb 0.00 in0.0 mm 0.00 in0.0 mm 0.06 in1.5 mm
08:34 PM 30.3°F-0.9°C 34.1°F1.2°C 87% Calm Calm -- 29.55 in1000.7 mb 0.00 in0.0 mm 0.00 in0.0 mm 0.06 in1.5 mm
08:37 PM 30.3°F-0.9°C 34.4°F1.3°C 87% Calm Calm -- 29.55 in1000.7 mb 0.00 in0.0 mm 0.00 in0.0 mm 0.06 in1.5 mm
08:40 PM 30.5°F-0.8°C 34.3°F1.3°C 87% Calm Calm -- 29.56 in1001.0 mb 0.00 in0.0 mm 0.00 in0.0 mm 0.06 in1.5 mm
08:43 PM 30.7°F-0.7°C 34.3°F1.3°C 87% Calm Calm -- 29.56 in1001.0 mb 0.00 in0.0 mm 0.00 in0.0 mm 0.06 in1.5 mm
08:46 PM 30.9°F-0.6°C 34.5°F1.4°C 88% Calm Calm -- 29.56 in1001.0 mb 0.00 in0.0 mm 0.00 in0.0 mm 0.06 in1.5 mm
08:49 PM 30.9°F-0.6°C 34.4°F1.3°C 87% Calm Calm -- 29.55 in1000.7 mb 0.00 in0.0 mm 0.00 in0.0 mm 0.06 in1.5 mm
08:52 PM 30.9°F-0.6°C 34.6°F1.4°C 88% Calm Calm -- 29.56 in1001.0 mb 0.00 in0.0 mm 0.00 in0.0 mm 0.06 in1.5 mm
08:55 PM 30.8°F-0.7°C 34.7°F1.5°C 88% Calm Calm -- 29.56 in1001.0 mb 0.00 in0.0 mm 0.00 in0.0 mm 0.06 in1.5 mm
08:58 PM 30.9°F-0.6°C 34.3°F1.3°C 87% Calm Calm -- 29.55 in1000.7 mb 0.00 in0.0 mm 0.00 in0.0 mm 0.06 in1.5 mm
09:01 PM 30.9°F-0.6°C 34.9°F1.6°C 88% Calm Calm -- 29.55 in1000.7 mb 0.00 in0.0 mm 0.00 in0.0 mm 0.06 in1.5 mm
09:04 PM 30.9°F-0.6°C 34.4°F1.3°C 87% Calm Calm -- 29.56 in1001.0 mb 0.00 in0.0 mm 0.00 in0.0 mm 0.06 in1.5 mm
09:07 PM 31.2°F-0.4°C 34.7°F1.5°C 88% Calm Calm -- 29.56 in1001.0 mb 0.00 in0.0 mm 0.00 in0.0 mm 0.06 in1.5 mm
09:10 PM 31.2°F-0.4°C 34.8°F1.6°C 88% Calm Calm -- 29.56 in1001.0 mb 0.00 in0.0 mm 0.00 in0.0 mm 0.06 in1.5 mm
09:13 PM 31.3°F-0.4°C 35.0°F1.7°C 88% 2.0 mph SW3.2 kmh SW 2.0 mph3.2 kmh 29.55 in1000.7 mb 0.00 in0.0 mm 0.00 in0.0 mm 0.06 in1.5 mm
09:16 PM 31.6°F-0.2°C 34.8°F1.6°C 88% 0.4 mph SW0.6 kmh SW 0.4 mph0.6 kmh 29.56 in1001.0 mb 0.00 in0.0 mm 0.00 in0.0 mm 0.06 in1.5 mm
09:19 PM 31.8°F-0.1°C 35.2°F1.8°C 89% 2.0 mph WSW3.2 kmh WSW 2.0 mph3.2 kmh 29.55 in1000.7 mb 0.00 in0.0 mm 0.00 in0.0 mm 0.06 in1.5 mm
09:22 PM 32.0°F0.0°C 35.1°F1.7°C 89% Calm Calm -- 29.56 in1001.0 mb 0.00 in0.0 mm 0.00 in0.0 mm 0.06 in1.5 mm
09:25 PM 32.0°F0.0°C 35.3°F1.8°C 89% Calm Calm -- 29.56 in1001.0 mb 0.00 in0.0 mm 0.00 in0.0 mm 0.06 in1.5 mm
09:28 PM 31.9°F-0.1°C 35.2°F1.8°C 89% Calm Calm -- 29.56 in1001.0 mb 0.00 in0.0 mm 0.00 in0.0 mm 0.06 in1.5 mm
09:31 PM 32.1°F0.1°C 35.3°F1.8°C 89% 3.2 mph NNW5.1 kmh NNW 3.3 mph5.3 kmh 29.57 in1001.4 mb 0.00 in0.0 mm 0.00 in0.0 mm 0.06 in1.5 mm
09:34 PM 32.2°F0.1°C 35.2°F1.8°C 89% 0.8 mph SSW1.3 kmh SSW 0.8 mph1.3 kmh 29.56 in1001.0 mb 0.00 in0.0 mm 0.00 in0.0 mm 0.06 in1.5 mm
09:37 PM 32.2°F0.1°C 35.4°F1.9°C 89% 1.6 mph SSW2.6 kmh SSW 1.6 mph2.6 kmh 29.56 in1001.0 mb 0.00 in0.0 mm 0.00 in0.0 mm 0.06 in1.5 mm
09:40 PM 32.5°F0.3°C 35.4°F1.9°C 89% 0.8 mph SW1.3 kmh SW 0.8 mph1.3 kmh 29.57 in1001.4 mb 0.00 in0.0 mm 0.00 in0.0 mm 0.06 in1.5 mm
09:43 PM 32.3°F0.2°C 35.8°F2.1°C 89% 2.0 mph SW3.2 kmh SW 2.0 mph3.2 kmh 29.56 in1001.0 mb 0.00 in0.0 mm 0.00 in0.0 mm 0.06 in1.5 mm
09:46 PM 32.2°F0.1°C 35.4°F1.9°C 88% 2.4 mph WSW3.9 kmh WSW 2.4 mph3.9 kmh 29.56 in1001.0 mb 0.00 in0.0 mm 0.00 in0.0 mm 0.06 in1.5 mm
09:49 PM 32.1°F0.1°C 35.6°F2.0°C 89% 2.8 mph W4.5 kmh W 2.8 mph4.5 kmh 29.57 in1001.4 mb 0.00 in0.0 mm 0.00 in0.0 mm 0.06 in1.5 mm
09:52 PM 32.2°F0.1°C 35.7°F2.1°C 90% 0.8 mph SW1.3 kmh SW 0.8 mph1.3 kmh 29.56 in1001.0 mb 0.00 in0.0 mm 0.00 in0.0 mm 0.06 in1.5 mm
09:55 PM 32.1°F0.1°C 35.8°F2.1°C 90% 2.4 mph SW3.9 kmh SW 2.4 mph3.9 kmh 29.56 in1001.0 mb 0.00 in0.0 mm 0.00 in0.0 mm 0.06 in1.5 mm
09:58 PM 32.1°F0.1°C 35.6°F2.0°C 90% 2.0 mph WSW3.2 kmh WSW 2.0 mph3.2 kmh 29.57 in1001.4 mb 0.00 in0.0 mm 0.00 in0.0 mm 0.06 in1.5 mm
10:01 PM 32.0°F0.0°C 35.7°F2.1°C 90% 0.4 mph WSW0.6 kmh WSW 0.4 mph0.6 kmh 29.56 in1001.0 mb 0.00 in0.0 mm 0.00 in0.0 mm 0.06 in1.5 mm
10:04 PM 32.0°F0.0°C 35.8°F2.1°C 90% 1.6 mph SW2.6 kmh SW 1.6 mph2.6 kmh 29.56 in1001.0 mb 0.00 in0.0 mm 0.00 in0.0 mm 0.06 in1.5 mm
10:07 PM 32.0°F0.0°C 35.7°F2.1°C 90% 1.2 mph W1.9 kmh W 1.2 mph1.9 kmh 29.56 in1001.0 mb 0.00 in0.0 mm 0.00 in0.0 mm 0.06 in1.5 mm
10:10 PM 32.0°F0.0°C 35.7°F2.1°C 90% 2.8 mph SW4.5 kmh SW 2.8 mph4.5 kmh 29.56 in1001.0 mb 0.00 in0.0 mm 0.00 in0.0 mm 0.06 in1.5 mm
10:13 PM 31.9°F-0.1°C 35.6°F2.0°C 90% Calm Calm -- 29.56 in1001.0 mb 0.00 in0.0 mm 0.00 in0.0 mm 0.06 in1.5 mm
10:16 PM 32.0°F0.0°C 35.7°F2.1°C 90% 2.8 mph W4.5 kmh W 2.9 mph4.7 kmh 29.56 in1001.0 mb 0.00 in0.0 mm 0.00 in0.0 mm 0.06 in1.5 mm
10:19 PM 32.1°F0.1°C 35.9°F2.2°C 90% 2.0 mph W3.2 kmh W 2.0 mph3.2 kmh 29.56 in1001.0 mb 0.00 in0.0 mm 0.00 in0.0 mm 0.06 in1.5 mm
10:22 PM 32.1°F0.1°C 35.7°F2.1°C 90% 0.4 mph W0.6 kmh W 0.4 mph0.6 kmh 29.56 in1001.0 mb 0.00 in0.0 mm 0.00 in0.0 mm 0.06 in1.5 mm
10:25 PM 32.1°F0.1°C 35.6°F2.0°C 90% Calm Calm -- 29.57 in1001.4 mb 0.00 in0.0 mm 0.00 in0.0 mm 0.06 in1.5 mm
10:28 PM 32.0°F0.0°C 35.8°F2.1°C 90% 2.0 mph SW3.2 kmh SW 2.0 mph3.2 kmh 29.56 in1001.0 mb 0.00 in0.0 mm 0.00 in0.0 mm 0.06 in1.5 mm
10:31 PM 32.1°F0.1°C 35.9°F2.2°C 90% Calm Calm -- 29.57 in1001.4 mb 0.00 in0.0 mm 0.00 in0.0 mm 0.06 in1.5 mm
10:34 PM 31.9°F-0.1°C 35.6°F2.0°C 89% Calm Calm -- 29.57 in1001.4 mb 0.00 in0.0 mm 0.00 in0.0 mm 0.06 in1.5 mm
10:37 PM 31.9°F-0.1°C 35.8°F2.1°C 89% Calm Calm -- 29.57 in1001.4 mb 0.00 in0.0 mm 0.00 in0.0 mm 0.06 in1.5 mm
10:40 PM 32.1°F0.1°C 35.8°F2.1°C 89% Calm Calm -- 29.57 in1001.4 mb 0.00 in0.0 mm 0.00 in0.0 mm 0.06 in1.5 mm
10:43 PM 32.1°F0.1°C 35.7°F2.1°C 89% 1.6 mph SW2.6 kmh SW 1.6 mph2.6 kmh 29.57 in1001.4 mb 0.00 in0.0 mm 0.00 in0.0 mm 0.06 in1.5 mm
10:46 PM 32.1°F0.1°C 35.6°F2.0°C 90% Calm Calm -- 29.57 in1001.4 mb 0.00 in0.0 mm 0.00 in0.0 mm 0.06 in1.5 mm
10:49 PM 32.1°F0.1°C 35.9°F2.2°C 90% 1.6 mph SW2.6 kmh SW 1.6 mph2.6 kmh 29.57 in1001.4 mb 0.00 in0.0 mm 0.00 in0.0 mm 0.06 in1.5 mm
10:52 PM 32.1°F0.1°C 35.9°F2.2°C 89% Calm Calm -- 29.57 in1001.4 mb 0.00 in0.0 mm 0.00 in0.0 mm 0.06 in1.5 mm
10:55 PM 32.2°F0.1°C 36.1°F2.3°C 90% 0.4 mph WSW0.6 kmh WSW 0.4 mph0.6 kmh 29.57 in1001.4 mb 0.00 in0.0 mm 0.00 in0.0 mm 0.06 in1.5 mm
10:58 PM 32.3°F0.2°C 35.8°F2.1°C 90% Calm Calm -- 29.57 in1001.4 mb 0.00 in0.0 mm 0.00 in0.0 mm 0.06 in1.5 mm
11:01 PM 32.2°F0.1°C 35.8°F2.1°C 89% 1.2 mph W1.9 kmh W 1.2 mph1.9 kmh 29.57 in1001.4 mb 0.00 in0.0 mm 0.00 in0.0 mm 0.06 in1.5 mm
11:04 PM 32.3°F0.2°C 35.7°F2.1°C 89% 0.4 mph W0.6 kmh W 0.4 mph0.6 kmh 29.57 in1001.4 mb 0.00 in0.0 mm 0.00 in0.0 mm 0.06 in1.5 mm
11:07 PM 32.2°F0.1°C 35.9°F2.2°C 89% Calm Calm -- 29.57 in1001.4 mb 0.00 in0.0 mm 0.00 in0.0 mm 0.06 in1.5 mm
11:10 PM 32.5°F0.3°C 35.7°F2.1°C 89% 0.4 mph W0.6 kmh W 0.4 mph0.6 kmh 29.57 in1001.4 mb 0.00 in0.0 mm 0.00 in0.0 mm 0.06 in1.5 mm
11:13 PM 32.3°F0.2°C 36.0°F2.2°C 89% 0.4 mph SW0.6 kmh SW 0.4 mph0.6 kmh 29.57 in1001.4 mb 0.00 in0.0 mm 0.00 in0.0 mm 0.06 in1.5 mm
11:16 PM 32.2°F0.1°C 36.0°F2.2°C 89% Calm Calm -- 29.57 in1001.4 mb 0.00 in0.0 mm 0.00 in0.0 mm 0.06 in1.5 mm
11:19 PM 32.2°F0.1°C 36.0°F2.2°C 90% 2.8 mph SW4.5 kmh SW 2.8 mph4.5 kmh 29.57 in1001.4 mb 0.00 in0.0 mm 0.00 in0.0 mm 0.06 in1.5 mm
11:22 PM 32.3°F0.2°C 36.2°F2.3°C 90% 1.6 mph WSW2.6 kmh WSW 1.6 mph2.6 kmh 29.57 in1001.4 mb 0.00 in0.0 mm 0.00 in0.0 mm 0.06 in1.5 mm
11:25 PM 32.3°F0.2°C 35.9°F2.2°C 90% Calm Calm -- 29.57 in1001.4 mb 0.00 in0.0 mm 0.00 in0.0 mm 0.06 in1.5 mm
11:28 PM 32.2°F0.1°C 35.8°F2.1°C 90% Calm Calm -- 29.57 in1001.4 mb 0.00 in0.0 mm 0.00 in0.0 mm 0.06 in1.5 mm
11:31 PM 32.2°F0.1°C 35.9°F2.2°C 90% Calm Calm -- 29.57 in1001.4 mb 0.00 in0.0 mm 0.00 in0.0 mm 0.06 in1.5 mm
11:34 PM 32.3°F0.2°C 36.0°F2.2°C 90% Calm Calm -- 29.57 in1001.4 mb 0.00 in0.0 mm 0.00 in0.0 mm 0.06 in1.5 mm
11:37 PM 32.3°F0.2°C 36.2°F2.3°C 90% Calm Calm -- 29.57 in1001.4 mb 0.00 in0.0 mm 0.00 in0.0 mm 0.06 in1.5 mm
11:40 PM 32.3°F0.2°C 36.2°F2.3°C 90% Calm Calm -- 29.57 in1001.4 mb 0.00 in0.0 mm 0.00 in0.0 mm 0.06 in1.5 mm
11:43 PM 32.5°F0.3°C 36.2°F2.3°C 90% 2.4 mph W3.9 kmh W 2.4 mph3.9 kmh 29.57 in1001.4 mb 0.00 in0.0 mm 0.00 in0.0 mm 0.06 in1.5 mm
11:46 PM 32.5°F0.3°C 36.4°F2.4°C 90% Calm Calm -- 29.57 in1001.4 mb 0.00 in0.0 mm 0.00 in0.0 mm 0.06 in1.5 mm
11:49 PM 32.5°F0.3°C 36.2°F2.3°C 90% Calm Calm -- 29.57 in1001.4 mb 0.00 in0.0 mm 0.00 in0.0 mm 0.06 in1.5 mm
11:52 PM 32.5°F0.3°C 36.4°F2.4°C 90% 2.0 mph WSW3.2 kmh WSW 2.0 mph3.2 kmh 29.57 in1001.4 mb 0.00 in0.0 mm 0.00 in0.0 mm 0.06 in1.5 mm
11:55 PM 32.6°F0.3°C 36.3°F2.4°C 90% 5.3 mph SW8.5 kmh SW 5.3 mph8.5 kmh 29.57 in1001.4 mb 0.00 in0.0 mm 0.00 in0.0 mm 0.06 in1.5 mm
11:58 PM 32.6°F0.3°C 36.3°F2.4°C 90% Calm Calm -- 29.57 in1001.4 mb 0.00 in0.0 mm 0.00 in0.0 mm 0.06 in1.5 mm